UAE52P OMDB-LOWW
Flight info
| Callsign | UAE52P |
|---|---|
| Flight time | 7h 4m |
| Altitude | 33000 |
| Route | ANVIX L223 TARDI N629 BOTAM Y855 LAKLU/N0491F320 Q204 NALKI G652 TOKRA DCT ALROK/N0492F340 DCT BOSOB DCT ITRUX Y511 PMA Z712 WEJ L677 GESON Q777 RASDA/N0477F360 DCT OTHON DCT VAXOS DCT BANRO UG80 IMR UN127 LMO DCT EVIVI L863 OKANA DCT DONIV DCT PARAK DCT BALUX DCT TORNO DCT NATEX |
| Aircraft | B77W/H-SDE1E2E3FGHIJ2J3J4J5M1RWXY/LB1D1 |
Departure
| Time | 2026-04-22 12:31 |
|---|---|
| Airport | Dubai International Airport (OMDB) |
Arrival
| Time | 2026-04-22 19:35 |
|---|---|
| Airport | Vienna International Airport (LOWW) |
| Time | Latitude | Longitude | Altitude | Speed | Heading |
|---|---|---|---|---|---|
| 2026-04-22 11:50 | 25.24638 | 55.36660 | 26 ft | 0 kts | 276° |
| 2026-04-22 11:51 | 25.24639 | 55.36655 | 26 ft | 0 kts | 276° |
| 2026-04-22 12:14 | 25.24637 | 55.36678 | 27 ft | 4 kts | 276° |
| 2026-04-22 12:14 | 25.24634 | 55.36707 | 31 ft | 3 kts | 276° |
| 2026-04-22 12:14 | 25.24629 | 55.36730 | 26 ft | 4 kts | 310° |
| 2026-04-22 12:15 | 25.24609 | 55.36742 | 28 ft | 4 kts | 7° |
| 2026-04-22 12:15 | 25.24586 | 55.36732 | 28 ft | 4 kts | 31° |
| 2026-04-22 12:15 | 25.24563 | 55.36717 | 27 ft | 3 kts | 31° |
| 2026-04-22 12:15 | 25.24560 | 55.36715 | 26 ft | 0 kts | 31° |
| 2026-04-22 12:18 | 25.24593 | 55.36737 | 30 ft | 12 kts | 31° |
| 2026-04-22 12:19 | 25.24691 | 55.36803 | 29 ft | 18 kts | 31° |
| 2026-04-22 12:19 | 25.24770 | 55.36791 | 30 ft | 11 kts | 298° |
| 2026-04-22 12:19 | 25.24787 | 55.36711 | 29 ft | 11 kts | 283° |
| 2026-04-22 12:19 | 25.24810 | 55.36633 | 28 ft | 11 kts | 292° |
| 2026-04-22 12:20 | 25.24852 | 55.36550 | 32 ft | 13 kts | 302° |
| 2026-04-22 12:20 | 25.24905 | 55.36457 | 31 ft | 15 kts | 302° |
| 2026-04-22 12:20 | 25.24965 | 55.36351 | 29 ft | 17 kts | 302° |
| 2026-04-22 12:20 | 25.25032 | 55.36233 | 29 ft | 19 kts | 302° |
| 2026-04-22 12:21 | 25.25100 | 55.36110 | 27 ft | 19 kts | 302° |
| 2026-04-22 12:21 | 25.25168 | 55.35989 | 29 ft | 19 kts | 302° |
| 2026-04-22 12:21 | 25.25237 | 55.35866 | 26 ft | 19 kts | 302° |
| 2026-04-22 12:21 | 25.25307 | 55.35745 | 28 ft | 19 kts | 302° |
| 2026-04-22 12:22 | 25.25376 | 55.35622 | 30 ft | 19 kts | 302° |
| 2026-04-22 12:22 | 25.25445 | 55.35499 | 29 ft | 19 kts | 302° |
| 2026-04-22 12:22 | 25.25513 | 55.35377 | 30 ft | 19 kts | 302° |
| 2026-04-22 12:22 | 25.25582 | 55.35254 | 28 ft | 19 kts | 302° |
| 2026-04-22 12:23 | 25.25648 | 55.35162 | 29 ft | 11 kts | 340° |
| 2026-04-22 12:23 | 25.25722 | 55.35183 | 29 ft | 11 kts | 29° |
| 2026-04-22 12:23 | 25.25790 | 55.35227 | 30 ft | 11 kts | 31° |
| 2026-04-22 12:23 | 25.25856 | 55.35273 | 27 ft | 11 kts | 31° |
| 2026-04-22 12:24 | 25.25923 | 55.35317 | 31 ft | 11 kts | 31° |
| 2026-04-22 12:24 | 25.25980 | 55.35376 | 26 ft | 11 kts | 57° |
| 2026-04-22 12:24 | 25.26004 | 55.35458 | 26 ft | 11 kts | 84° |
| 2026-04-22 12:24 | 25.25992 | 55.35543 | 26 ft | 12 kts | 109° |
| 2026-04-22 12:25 | 25.25940 | 55.35648 | 26 ft | 19 kts | 123° |
| 2026-04-22 12:25 | 25.25863 | 55.35783 | 26 ft | 21 kts | 122° |
| 2026-04-22 12:25 | 25.25785 | 55.35920 | 27 ft | 21 kts | 122° |
| 2026-04-22 12:25 | 25.25708 | 55.36055 | 27 ft | 21 kts | 122° |
| 2026-04-22 12:26 | 25.25630 | 55.36191 | 27 ft | 21 kts | 122° |
| 2026-04-22 12:26 | 25.25552 | 55.36328 | 27 ft | 21 kts | 122° |
| 2026-04-22 12:26 | 25.25477 | 55.36465 | 27 ft | 21 kts | 121° |
| 2026-04-22 12:26 | 25.25400 | 55.36602 | 26 ft | 21 kts | 122° |
| 2026-04-22 12:27 | 25.25323 | 55.36739 | 26 ft | 21 kts | 121° |
| 2026-04-22 12:27 | 25.25248 | 55.36877 | 27 ft | 21 kts | 121° |
| 2026-04-22 12:27 | 25.25171 | 55.37014 | 27 ft | 21 kts | 122° |
| 2026-04-22 12:27 | 25.25094 | 55.37151 | 28 ft | 21 kts | 122° |
| 2026-04-22 12:28 | 25.25017 | 55.37288 | 28 ft | 21 kts | 122° |
| 2026-04-22 12:28 | 25.24940 | 55.37424 | 28 ft | 21 kts | 122° |
| 2026-04-22 12:28 | 25.24863 | 55.37561 | 28 ft | 21 kts | 122° |
| 2026-04-22 12:28 | 25.24785 | 55.37698 | 28 ft | 21 kts | 122° |
| 2026-04-22 12:29 | 25.24708 | 55.37834 | 27 ft | 21 kts | 122° |
| 2026-04-22 12:29 | 25.24671 | 55.37940 | 27 ft | 15 kts | 79° |
| 2026-04-22 12:29 | 25.24700 | 55.37978 | 28 ft | 6 kts | 35° |
| 2026-04-22 12:29 | 25.24736 | 55.38003 | 29 ft | 6 kts | 32° |
| 2026-04-22 12:30 | 25.24814 | 55.38000 | 30 ft | 10 kts | 313° |
| 2026-04-22 12:30 | 25.24905 | 55.37846 | 30 ft | 48 kts | 301° |
| 2026-04-22 12:30 | 25.25202 | 55.37311 | 32 ft | 113 kts | 301° |
| 2026-04-22 12:31 | 25.25714 | 55.36389 | 30 ft | 166 kts | 301° |
| 2026-04-22 12:31 | 25.26387 | 55.35189 | 157 ft | 192 kts | 302° |
| 2026-04-22 12:31 | 25.27093 | 55.33930 | 602 ft | 197 kts | 301° |
| 2026-04-22 12:31 | 25.27817 | 55.32626 | 1062 ft | 203 kts | 302° |
| 2026-04-22 12:32 | 25.28559 | 55.31293 | 1523 ft | 204 kts | 302° |
| 2026-04-22 12:32 | 25.29106 | 55.28376 | 2215 ft | 204 kts | 245° |
| 2026-04-22 12:32 | 25.28493 | 55.26954 | 2568 ft | 205 kts | 244° |
| 2026-04-22 12:33 | 25.27886 | 55.25525 | 3006 ft | 206 kts | 244° |
| 2026-04-22 12:33 | 25.27286 | 55.24111 | 3402 ft | 206 kts | 244° |
| 2026-04-22 12:33 | 25.26676 | 55.22677 | 3809 ft | 206 kts | 244° |
| 2026-04-22 12:33 | 25.26060 | 55.21241 | 4185 ft | 210 kts | 244° |
| 2026-04-22 12:34 | 25.25411 | 55.19717 | 4310 ft | 227 kts | 244° |
| 2026-04-22 12:34 | 25.24702 | 55.18125 | 4612 ft | 235 kts | 236° |
| 2026-04-22 12:34 | 25.23467 | 55.16944 | 4964 ft | 240 kts | 201° |
| 2026-04-22 12:34 | 25.21809 | 55.16707 | 5343 ft | 245 kts | 178° |
| 2026-04-22 12:35 | 25.20086 | 55.16850 | 5675 ft | 252 kts | 171° |
| 2026-04-22 12:35 | 25.18470 | 55.17631 | 5991 ft | 261 kts | 138° |
| 2026-04-22 12:35 | 25.17376 | 55.19290 | 6162 ft | 277 kts | 119° |
| 2026-04-22 12:35 | 25.16478 | 55.21222 | 6522 ft | 287 kts | 119° |
| 2026-04-22 12:36 | 25.15550 | 55.23203 | 7037 ft | 292 kts | 119° |
| 2026-04-22 12:36 | 25.14604 | 55.25197 | 7614 ft | 295 kts | 120° |
| 2026-04-22 12:36 | 25.13645 | 55.27206 | 8180 ft | 296 kts | 120° |
| 2026-04-22 12:36 | 25.12673 | 55.29219 | 8717 ft | 299 kts | 120° |
| 2026-04-22 12:37 | 25.11694 | 55.31261 | 9208 ft | 303 kts | 120° |
| 2026-04-22 12:37 | 25.10704 | 55.33323 | 9724 ft | 305 kts | 118° |
| 2026-04-22 12:37 | 25.09793 | 55.35448 | 10270 ft | 308 kts | 115° |
| 2026-04-22 12:37 | 25.08916 | 55.37616 | 10827 ft | 311 kts | 115° |
| 2026-04-22 12:38 | 25.08030 | 55.39801 | 11398 ft | 314 kts | 115° |
| 2026-04-22 12:38 | 25.07131 | 55.42010 | 12036 ft | 317 kts | 115° |
| 2026-04-22 12:38 | 25.06251 | 55.44276 | 12469 ft | 331 kts | 114° |
| 2026-04-22 12:38 | 25.05328 | 55.46691 | 12614 ft | 352 kts | 114° |
| 2026-04-22 12:39 | 25.04346 | 55.49253 | 12782 ft | 373 kts | 114° |
| 2026-04-22 12:39 | 25.02229 | 55.54768 | 13392 ft | 404 kts | 114° |
| 2026-04-22 12:39 | 25.00984 | 55.57582 | 13909 ft | 411 kts | 121° |
| 2026-04-22 12:40 | 24.99499 | 55.60286 | 14586 ft | 414 kts | 124° |
| 2026-04-22 12:40 | 24.97950 | 55.62972 | 15284 ft | 416 kts | 123° |
| 2026-04-22 12:40 | 24.96420 | 55.65701 | 15934 ft | 420 kts | 123° |
| 2026-04-22 12:40 | 24.94909 | 55.68474 | 16556 ft | 425 kts | 122° |
| 2026-04-22 12:41 | 24.93369 | 55.71263 | 17163 ft | 429 kts | 125° |
| 2026-04-22 12:41 | 24.91637 | 55.73953 | 17761 ft | 431 kts | 129° |
| 2026-04-22 12:41 | 24.89810 | 55.76589 | 18381 ft | 434 kts | 129° |
| 2026-04-22 12:41 | 24.87972 | 55.79245 | 18988 ft | 438 kts | 129° |
| 2026-04-22 12:42 | 24.86144 | 55.81955 | 19532 ft | 443 kts | 128° |
| 2026-04-22 12:42 | 24.84318 | 55.84708 | 20044 ft | 448 kts | 128° |
| 2026-04-22 12:42 | 24.82466 | 55.87486 | 20550 ft | 452 kts | 128° |
| 2026-04-22 12:42 | 24.80580 | 55.90280 | 21067 ft | 456 kts | 129° |
| 2026-04-22 12:43 | 24.78680 | 55.93086 | 21618 ft | 459 kts | 129° |
| 2026-04-22 12:43 | 24.76617 | 55.95767 | 22019 ft | 460 kts | 137° |
| 2026-04-22 12:43 | 24.74245 | 55.98151 | 22443 ft | 463 kts | 141° |
| 2026-04-22 12:43 | 24.71797 | 56.00479 | 22910 ft | 467 kts | 141° |
| 2026-04-22 12:44 | 24.69378 | 56.02876 | 23376 ft | 470 kts | 139° |
| 2026-04-22 12:44 | 24.66976 | 56.05336 | 23788 ft | 474 kts | 139° |
| 2026-04-22 12:44 | 24.64599 | 56.07790 | 24197 ft | 477 kts | 139° |
| 2026-04-22 12:44 | 24.62135 | 56.10321 | 24610 ft | 480 kts | 139° |
| 2026-04-22 12:45 | 24.59681 | 56.12833 | 24985 ft | 484 kts | 139° |
| 2026-04-22 12:45 | 24.57264 | 56.15350 | 25344 ft | 488 kts | 137° |
| 2026-04-22 12:45 | 24.54940 | 56.18069 | 25637 ft | 486 kts | 137° |
| 2026-04-22 12:45 | 24.52230 | 56.20277 | 25695 ft | 488 kts | 158° |
| 2026-04-22 12:46 | 24.49009 | 56.21323 | 26021 ft | 482 kts | 178° |
| 2026-04-22 12:46 | 24.45709 | 56.21115 | 26472 ft | 473 kts | 197° |
| 2026-04-22 12:46 | 24.42667 | 56.19847 | 26806 ft | 465 kts | 207° |
| 2026-04-22 12:46 | 24.39599 | 56.18594 | 26951 ft | 476 kts | 200° |
| 2026-04-22 12:47 | 24.36391 | 56.17629 | 27248 ft | 480 kts | 197° |
| 2026-04-22 12:47 | 24.33131 | 56.16789 | 27631 ft | 482 kts | 196° |
| 2026-04-22 12:47 | 24.29853 | 56.15979 | 27979 ft | 484 kts | 196° |
| 2026-04-22 12:47 | 24.26566 | 56.15147 | 28314 ft | 486 kts | 197° |
| 2026-04-22 12:48 | 24.23272 | 56.14280 | 28629 ft | 488 kts | 197° |
| 2026-04-22 12:48 | 24.19969 | 56.13379 | 28932 ft | 490 kts | 198° |
| 2026-04-22 12:48 | 24.16666 | 56.12455 | 29274 ft | 490 kts | 198° |
| 2026-04-22 12:48 | 24.13371 | 56.11522 | 29714 ft | 489 kts | 199° |
| 2026-04-22 12:49 | 24.10089 | 56.10589 | 30177 ft | 486 kts | 199° |
| 2026-04-22 12:49 | 24.06818 | 56.09658 | 30588 ft | 485 kts | 199° |
| 2026-04-22 12:49 | 24.03549 | 56.08729 | 30929 ft | 485 kts | 199° |
| 2026-04-22 12:49 | 24.00275 | 56.07801 | 31254 ft | 486 kts | 199° |
| 2026-04-22 12:50 | 23.97016 | 56.06878 | 31566 ft | 486 kts | 199° |
| 2026-04-22 12:50 | 23.93744 | 56.05958 | 31906 ft | 486 kts | 199° |
| 2026-04-22 12:50 | 23.90471 | 56.05034 | 32278 ft | 485 kts | 200° |
| 2026-04-22 12:50 | 23.87208 | 56.04109 | 32586 ft | 485 kts | 200° |
| 2026-04-22 12:51 | 23.83940 | 56.03187 | 32855 ft | 485 kts | 200° |
| 2026-04-22 12:51 | 23.80670 | 56.02268 | 33134 ft | 485 kts | 200° |
| 2026-04-22 12:51 | 23.77405 | 56.01350 | 33435 ft | 485 kts | 200° |
| 2026-04-22 12:51 | 23.74139 | 56.00432 | 33696 ft | 485 kts | 200° |
| 2026-04-22 12:52 | 23.70857 | 55.99507 | 33732 ft | 489 kts | 200° |
| 2026-04-22 12:52 | 23.64220 | 55.97638 | 33790 ft | 497 kts | 200° |
| 2026-04-22 12:53 | 23.57474 | 55.95740 | 33795 ft | 504 kts | 200° |
| 2026-04-22 12:53 | 23.50666 | 55.93835 | 33792 ft | 506 kts | 200° |
| 2026-04-22 12:54 | 23.43840 | 55.91926 | 33784 ft | 506 kts | 200° |
| 2026-04-22 12:54 | 23.37028 | 55.90022 | 33790 ft | 504 kts | 200° |
| 2026-04-22 12:55 | 23.31390 | 55.88445 | 33788 ft | 502 kts | 200° |
| 2026-04-22 12:55 | 23.23536 | 55.86254 | 33792 ft | 501 kts | 200° |
| 2026-04-22 12:56 | 23.16802 | 55.84374 | 33795 ft | 499 kts | 200° |
| 2026-04-22 12:56 | 23.10069 | 55.82497 | 33787 ft | 500 kts | 200° |
| 2026-04-22 12:57 | 23.03328 | 55.80621 | 33785 ft | 501 kts | 200° |
| 2026-04-22 12:57 | 22.96597 | 55.78747 | 33789 ft | 501 kts | 200° |
| 2026-04-22 12:58 | 22.89828 | 55.76867 | 33788 ft | 503 kts | 200° |
| 2026-04-22 12:58 | 22.83039 | 55.74984 | 33786 ft | 504 kts | 200° |
| 2026-04-22 12:59 | 22.76230 | 55.73098 | 33799 ft | 505 kts | 200° |
| 2026-04-22 12:59 | 22.70561 | 55.71527 | 33795 ft | 507 kts | 199° |
| 2026-04-22 13:00 | 22.63723 | 55.69635 | 33796 ft | 508 kts | 199° |
| 2026-04-22 13:00 | 22.56878 | 55.67743 | 33798 ft | 508 kts | 199° |
| 2026-04-22 13:01 | 22.50015 | 55.65848 | 33795 ft | 509 kts | 199° |
| 2026-04-22 13:01 | 22.43149 | 55.63954 | 33795 ft | 509 kts | 199° |
| 2026-04-22 13:02 | 22.36290 | 55.62065 | 33796 ft | 509 kts | 199° |
| 2026-04-22 13:02 | 22.29424 | 55.60173 | 33797 ft | 509 kts | 199° |
| 2026-04-22 13:03 | 22.22631 | 55.58131 | 33786 ft | 499 kts | 210° |
| 2026-04-22 13:03 | 22.19731 | 55.56209 | 33807 ft | 484 kts | 227° |
| 2026-04-22 13:03 | 22.17524 | 55.53542 | 33819 ft | 473 kts | 241° |
| 2026-04-22 13:04 | 22.14859 | 55.47186 | 33806 ft | 462 kts | 262° |
| 2026-04-22 13:04 | 22.14279 | 55.40376 | 33806 ft | 457 kts | 269° |
| 2026-04-22 13:05 | 22.13793 | 55.33519 | 33811 ft | 460 kts | 268° |
| 2026-04-22 13:05 | 22.13255 | 55.26630 | 33810 ft | 462 kts | 268° |
| 2026-04-22 13:06 | 22.12692 | 55.19773 | 33809 ft | 461 kts | 268° |
| 2026-04-22 13:06 | 22.12112 | 55.12893 | 33802 ft | 460 kts | 268° |
| 2026-04-22 13:07 | 22.11534 | 55.06047 | 33802 ft | 457 kts | 268° |
| 2026-04-22 13:07 | 22.10971 | 54.99379 | 33807 ft | 454 kts | 268° |
| 2026-04-22 13:08 | 22.10398 | 54.92619 | 33810 ft | 451 kts | 268° |
| 2026-04-22 13:08 | 22.09828 | 54.85896 | 33802 ft | 450 kts | 268° |
| 2026-04-22 13:09 | 22.09256 | 54.79199 | 33811 ft | 448 kts | 267° |
| 2026-04-22 13:09 | 22.08678 | 54.72515 | 33803 ft | 448 kts | 267° |
| 2026-04-22 13:10 | 22.08100 | 54.65837 | 33807 ft | 447 kts | 267° |
| 2026-04-22 13:10 | 22.07520 | 54.59157 | 33809 ft | 447 kts | 267° |
| 2026-04-22 13:11 | 22.06940 | 54.52478 | 33807 ft | 447 kts | 267° |
| 2026-04-22 13:11 | 22.06356 | 54.45804 | 33798 ft | 447 kts | 267° |
| 2026-04-22 13:12 | 22.05764 | 54.39133 | 33812 ft | 447 kts | 267° |
| 2026-04-22 13:12 | 22.05173 | 54.32463 | 33800 ft | 447 kts | 267° |
| 2026-04-22 13:13 | 22.04583 | 54.25809 | 33802 ft | 446 kts | 267° |
| 2026-04-22 13:13 | 22.03992 | 54.19160 | 33809 ft | 445 kts | 267° |
| 2026-04-22 13:14 | 22.03396 | 54.12522 | 33801 ft | 445 kts | 267° |
| 2026-04-22 13:14 | 22.02798 | 54.05892 | 33805 ft | 445 kts | 267° |
| 2026-04-22 13:15 | 22.02208 | 53.99366 | 33798 ft | 445 kts | 267° |
| 2026-04-22 13:15 | 22.01603 | 53.92730 | 33795 ft | 445 kts | 267° |
| 2026-04-22 13:16 | 22.00998 | 53.86136 | 33796 ft | 445 kts | 267° |
| 2026-04-22 13:16 | 22.00391 | 53.79499 | 33797 ft | 445 kts | 267° |
| 2026-04-22 13:17 | 21.99781 | 53.72881 | 33794 ft | 445 kts | 267° |
| 2026-04-22 13:17 | 21.99167 | 53.66248 | 33797 ft | 445 kts | 267° |
| 2026-04-22 13:18 | 21.98551 | 53.59610 | 33798 ft | 445 kts | 267° |
| 2026-04-22 13:18 | 21.97930 | 53.52975 | 33795 ft | 445 kts | 267° |
| 2026-04-22 13:19 | 21.97306 | 53.46336 | 33799 ft | 446 kts | 267° |
| 2026-04-22 13:19 | 21.96682 | 53.39695 | 33795 ft | 446 kts | 267° |
| 2026-04-22 13:20 | 21.96053 | 53.33050 | 33800 ft | 445 kts | 267° |
| 2026-04-22 13:20 | 21.95422 | 53.26416 | 33796 ft | 445 kts | 267° |
| 2026-04-22 13:21 | 21.94790 | 53.19785 | 33796 ft | 445 kts | 267° |
| 2026-04-22 13:21 | 21.94157 | 53.13211 | 33798 ft | 444 kts | 266° |
| 2026-04-22 13:22 | 21.93521 | 53.06590 | 33800 ft | 444 kts | 266° |
| 2026-04-22 13:22 | 21.92883 | 52.99985 | 33807 ft | 444 kts | 266° |
| 2026-04-22 13:23 | 21.92249 | 52.93469 | 33804 ft | 444 kts | 266° |
| 2026-04-22 13:23 | 21.91605 | 52.86851 | 33804 ft | 444 kts | 266° |
| 2026-04-22 13:24 | 21.90957 | 52.80236 | 33804 ft | 444 kts | 266° |
| 2026-04-22 13:24 | 21.90407 | 52.73631 | 33804 ft | 442 kts | 271° |
| 2026-04-22 13:25 | 21.90704 | 52.67046 | 33809 ft | 440 kts | 277° |
| 2026-04-22 13:25 | 21.91766 | 52.60566 | 33810 ft | 439 kts | 281° |
| 2026-04-22 13:26 | 21.92988 | 52.54117 | 33807 ft | 440 kts | 281° |
| 2026-04-22 13:26 | 21.94198 | 52.47658 | 33806 ft | 440 kts | 281° |
| 2026-04-22 13:27 | 21.95390 | 52.41186 | 33806 ft | 440 kts | 281° |
| 2026-04-22 13:27 | 21.96574 | 52.34721 | 33806 ft | 440 kts | 281° |
| 2026-04-22 13:28 | 21.97744 | 52.28300 | 33807 ft | 440 kts | 281° |
| 2026-04-22 13:28 | 21.98920 | 52.21839 | 33804 ft | 439 kts | 281° |
| 2026-04-22 13:29 | 22.00094 | 52.15378 | 33807 ft | 439 kts | 281° |
| 2026-04-22 13:29 | 22.01265 | 52.08917 | 33804 ft | 439 kts | 281° |
| 2026-04-22 13:30 | 22.02434 | 52.02456 | 33806 ft | 439 kts | 281° |
| 2026-04-22 13:30 | 22.03580 | 51.96098 | 33805 ft | 439 kts | 281° |
| 2026-04-22 13:31 | 22.04744 | 51.89627 | 33808 ft | 440 kts | 281° |
| 2026-04-22 13:31 | 22.05905 | 51.83154 | 33804 ft | 440 kts | 281° |
| 2026-04-22 13:32 | 22.07065 | 51.76679 | 33806 ft | 440 kts | 281° |
| 2026-04-22 13:32 | 22.08221 | 51.70202 | 33807 ft | 440 kts | 281° |
| 2026-04-22 13:33 | 22.09374 | 51.63727 | 33806 ft | 440 kts | 281° |
| 2026-04-22 13:33 | 22.10522 | 51.57255 | 33810 ft | 440 kts | 281° |
| 2026-04-22 13:34 | 22.11673 | 51.50782 | 33798 ft | 440 kts | 281° |
| 2026-04-22 13:34 | 22.12820 | 51.44301 | 33796 ft | 440 kts | 280° |
| 2026-04-22 13:35 | 22.13961 | 51.37823 | 33796 ft | 439 kts | 280° |
| 2026-04-22 13:35 | 22.15094 | 51.31398 | 33796 ft | 439 kts | 280° |
| 2026-04-22 13:36 | 22.16232 | 51.24927 | 33807 ft | 439 kts | 280° |
| 2026-04-22 13:36 | 22.17368 | 51.18448 | 33813 ft | 440 kts | 280° |
| 2026-04-22 13:37 | 22.18499 | 51.11962 | 33815 ft | 440 kts | 280° |
| 2026-04-22 13:37 | 22.19633 | 51.05467 | 33815 ft | 440 kts | 280° |
| 2026-04-22 13:38 | 22.20742 | 50.99091 | 33815 ft | 440 kts | 280° |
| 2026-04-22 13:38 | 22.22431 | 50.89354 | 33815 ft | 440 kts | 280° |
| 2026-04-22 13:39 | 22.23553 | 50.82864 | 33812 ft | 439 kts | 280° |
| 2026-04-22 13:39 | 22.24672 | 50.76381 | 33814 ft | 439 kts | 280° |
| 2026-04-22 13:40 | 22.25787 | 50.69899 | 33815 ft | 439 kts | 280° |
| 2026-04-22 13:40 | 22.26900 | 50.63416 | 33814 ft | 439 kts | 280° |
| 2026-04-22 13:41 | 22.28010 | 50.56939 | 33816 ft | 439 kts | 280° |
| 2026-04-22 13:41 | 22.29116 | 50.50457 | 33815 ft | 439 kts | 280° |
| 2026-04-22 13:42 | 22.30221 | 50.43974 | 33813 ft | 439 kts | 280° |
| 2026-04-22 13:42 | 22.31323 | 50.37484 | 33816 ft | 439 kts | 280° |
| 2026-04-22 13:43 | 22.32425 | 50.30987 | 33817 ft | 440 kts | 280° |
| 2026-04-22 13:43 | 22.33524 | 50.24483 | 33812 ft | 440 kts | 280° |
| 2026-04-22 13:44 | 22.34623 | 50.17978 | 33816 ft | 441 kts | 280° |
| 2026-04-22 13:44 | 22.35718 | 50.11465 | 33814 ft | 441 kts | 280° |
| 2026-04-22 13:45 | 22.36805 | 50.04990 | 33815 ft | 441 kts | 280° |
| 2026-04-22 13:45 | 22.37875 | 49.98600 | 33814 ft | 441 kts | 280° |
| 2026-04-22 13:46 | 22.38962 | 49.92083 | 33824 ft | 440 kts | 280° |
| 2026-04-22 13:46 | 22.40046 | 49.85577 | 33834 ft | 440 kts | 280° |
| 2026-04-22 13:47 | 22.41129 | 49.79069 | 33837 ft | 440 kts | 280° |
| 2026-04-22 13:47 | 22.42206 | 49.72570 | 33836 ft | 439 kts | 280° |
| 2026-04-22 13:48 | 22.43279 | 49.66070 | 33843 ft | 439 kts | 279° |
| 2026-04-22 13:48 | 22.44347 | 49.59584 | 33840 ft | 438 kts | 280° |
| 2026-04-22 13:49 | 22.45415 | 49.53105 | 33843 ft | 438 kts | 279° |
| 2026-04-22 13:49 | 22.46475 | 49.46634 | 33842 ft | 437 kts | 279° |
| 2026-04-22 13:50 | 22.47362 | 49.41216 | 33846 ft | 437 kts | 279° |
| 2026-04-22 13:50 | 22.48417 | 49.34749 | 33856 ft | 436 kts | 279° |
| 2026-04-22 13:51 | 22.49468 | 49.28290 | 33852 ft | 436 kts | 279° |
| 2026-04-22 13:51 | 22.50516 | 49.21834 | 33853 ft | 435 kts | 279° |
| 2026-04-22 13:52 | 22.51559 | 49.15389 | 33848 ft | 435 kts | 279° |
| 2026-04-22 13:52 | 22.52601 | 49.08950 | 33854 ft | 434 kts | 279° |
| 2026-04-22 13:53 | 22.53635 | 49.02526 | 33851 ft | 433 kts | 279° |
| 2026-04-22 13:53 | 22.54641 | 48.96265 | 33852 ft | 433 kts | 279° |
| 2026-04-22 13:54 | 22.55669 | 48.89857 | 33851 ft | 432 kts | 279° |
| 2026-04-22 13:54 | 22.56693 | 48.83452 | 33848 ft | 432 kts | 279° |
| 2026-04-22 13:55 | 22.57712 | 48.77054 | 33851 ft | 432 kts | 279° |
| 2026-04-22 13:55 | 22.58731 | 48.70657 | 33852 ft | 431 kts | 279° |
| 2026-04-22 13:56 | 22.59743 | 48.64269 | 33851 ft | 431 kts | 279° |
| 2026-04-22 13:56 | 22.60753 | 48.57876 | 33852 ft | 430 kts | 279° |
| 2026-04-22 13:57 | 22.61758 | 48.51505 | 33855 ft | 429 kts | 279° |
| 2026-04-22 13:57 | 22.62760 | 48.45147 | 33863 ft | 428 kts | 279° |
| 2026-04-22 13:58 | 22.63756 | 48.38788 | 33862 ft | 429 kts | 279° |
| 2026-04-22 13:58 | 22.64754 | 48.32425 | 33858 ft | 429 kts | 279° |
| 2026-04-22 13:59 | 22.65739 | 48.26105 | 33864 ft | 429 kts | 279° |
| 2026-04-22 13:59 | 22.66733 | 48.19731 | 33863 ft | 429 kts | 279° |
| 2026-04-22 14:00 | 22.67723 | 48.13356 | 33861 ft | 429 kts | 279° |
| 2026-04-22 14:00 | 22.68709 | 48.06981 | 33860 ft | 429 kts | 279° |
| 2026-04-22 14:01 | 22.69503 | 48.00582 | 33861 ft | 429 kts | 275° |
| 2026-04-22 14:01 | 22.70018 | 47.94270 | 33863 ft | 428 kts | 275° |
| 2026-04-22 14:02 | 22.70537 | 47.87850 | 33861 ft | 428 kts | 275° |
| 2026-04-22 14:02 | 22.71064 | 47.81429 | 33863 ft | 428 kts | 275° |
| 2026-04-22 14:03 | 22.71592 | 47.75006 | 33860 ft | 428 kts | 275° |
| 2026-04-22 14:03 | 22.72119 | 47.68589 | 33861 ft | 428 kts | 275° |
| 2026-04-22 14:04 | 22.72643 | 47.62171 | 33862 ft | 428 kts | 275° |
| 2026-04-22 14:04 | 22.73165 | 47.55758 | 33860 ft | 428 kts | 275° |
| 2026-04-22 14:05 | 22.73682 | 47.49343 | 33875 ft | 427 kts | 275° |
| 2026-04-22 14:06 | 22.74455 | 47.39720 | 33879 ft | 428 kts | 275° |
| 2026-04-22 14:06 | 22.74967 | 47.33301 | 33879 ft | 428 kts | 275° |
| 2026-04-22 14:07 | 22.75473 | 47.26921 | 33881 ft | 428 kts | 275° |
| 2026-04-22 14:07 | 22.75981 | 47.20495 | 33881 ft | 428 kts | 275° |
| 2026-04-22 14:08 | 22.76488 | 47.14074 | 33878 ft | 428 kts | 275° |
| 2026-04-22 14:08 | 22.77003 | 47.07657 | 33879 ft | 428 kts | 275° |
| 2026-04-22 14:09 | 22.77517 | 47.01239 | 33871 ft | 428 kts | 275° |
| 2026-04-22 14:09 | 22.78017 | 46.94937 | 33869 ft | 427 kts | 275° |
| 2026-04-22 14:10 | 22.78521 | 46.88515 | 33871 ft | 428 kts | 275° |
| 2026-04-22 14:10 | 22.79021 | 46.82098 | 33869 ft | 427 kts | 275° |
| 2026-04-22 14:11 | 22.79524 | 46.75681 | 33870 ft | 428 kts | 275° |
| 2026-04-22 14:11 | 22.80025 | 46.69254 | 33871 ft | 428 kts | 275° |
| 2026-04-22 14:12 | 22.80521 | 46.62821 | 33844 ft | 428 kts | 275° |
| 2026-04-22 14:12 | 22.81016 | 46.56384 | 33842 ft | 429 kts | 275° |
| 2026-04-22 14:13 | 22.81508 | 46.49942 | 33844 ft | 429 kts | 275° |
| 2026-04-22 14:13 | 22.81998 | 46.43498 | 33835 ft | 429 kts | 275° |
| 2026-04-22 14:14 | 22.82486 | 46.37044 | 33830 ft | 430 kts | 275° |
| 2026-04-22 14:14 | 22.82963 | 46.30590 | 33832 ft | 429 kts | 275° |
| 2026-04-22 14:15 | 22.83434 | 46.24152 | 33839 ft | 428 kts | 275° |
| 2026-04-22 14:15 | 22.83906 | 46.17723 | 33846 ft | 428 kts | 275° |
| 2026-04-22 14:16 | 22.84375 | 46.11298 | 33854 ft | 427 kts | 275° |
| 2026-04-22 14:16 | 22.84840 | 46.04871 | 33843 ft | 428 kts | 275° |
| 2026-04-22 14:17 | 22.85293 | 45.98569 | 33848 ft | 427 kts | 275° |
| 2026-04-22 14:17 | 22.85753 | 45.92147 | 33854 ft | 427 kts | 275° |
| 2026-04-22 14:18 | 22.86211 | 45.85725 | 33852 ft | 427 kts | 275° |
| 2026-04-22 14:18 | 22.86663 | 45.79346 | 33852 ft | 428 kts | 275° |
| 2026-04-22 14:19 | 22.87114 | 45.72917 | 33851 ft | 427 kts | 275° |
| 2026-04-22 14:19 | 22.87563 | 45.66492 | 33853 ft | 428 kts | 275° |
| 2026-04-22 14:20 | 22.88238 | 45.56842 | 33853 ft | 428 kts | 275° |
| 2026-04-22 14:20 | 22.88680 | 45.50412 | 33865 ft | 427 kts | 275° |
| 2026-04-22 14:21 | 22.89339 | 45.40776 | 33871 ft | 427 kts | 275° |
| 2026-04-22 14:22 | 22.89992 | 45.31154 | 33871 ft | 426 kts | 275° |
| 2026-04-22 14:23 | 22.90639 | 45.21540 | 33869 ft | 426 kts | 275° |
| 2026-04-22 14:23 | 22.91066 | 45.15136 | 33870 ft | 425 kts | 275° |
| 2026-04-22 14:24 | 22.91491 | 45.08742 | 33871 ft | 425 kts | 275° |
| 2026-04-22 14:24 | 22.91914 | 45.02351 | 33868 ft | 425 kts | 275° |
| 2026-04-22 14:25 | 22.92328 | 44.96068 | 33883 ft | 424 kts | 275° |
| 2026-04-22 14:25 | 22.92744 | 44.89680 | 33878 ft | 425 kts | 274° |
| 2026-04-22 14:26 | 22.93160 | 44.83284 | 33884 ft | 425 kts | 274° |
| 2026-04-22 14:26 | 22.93571 | 44.76931 | 33884 ft | 425 kts | 274° |
| 2026-04-22 14:27 | 22.94010 | 44.70528 | 33880 ft | 426 kts | 277° |
| 2026-04-22 14:27 | 22.95122 | 44.64221 | 33877 ft | 426 kts | 283° |
| 2026-04-22 14:28 | 22.96957 | 44.58059 | 33882 ft | 427 kts | 287° |
| 2026-04-22 14:28 | 22.98866 | 44.51958 | 33881 ft | 427 kts | 287° |
| 2026-04-22 14:29 | 23.00750 | 44.45902 | 33881 ft | 427 kts | 287° |
| 2026-04-22 14:29 | 23.02636 | 44.39796 | 33881 ft | 426 kts | 287° |
| 2026-04-22 14:30 | 23.04514 | 44.33695 | 33894 ft | 426 kts | 287° |
| 2026-04-22 14:30 | 23.06384 | 44.27605 | 33899 ft | 425 kts | 287° |
| 2026-04-22 14:31 | 23.08250 | 44.21516 | 33892 ft | 425 kts | 287° |
| 2026-04-22 14:31 | 23.10113 | 44.15434 | 33906 ft | 424 kts | 287° |
| 2026-04-22 14:32 | 23.11970 | 44.09362 | 33913 ft | 424 kts | 287° |
| 2026-04-22 14:32 | 23.13824 | 44.03287 | 33895 ft | 423 kts | 287° |
| 2026-04-22 14:33 | 23.15639 | 43.97333 | 33907 ft | 423 kts | 287° |
| 2026-04-22 14:33 | 23.17484 | 43.91271 | 33913 ft | 422 kts | 287° |
| 2026-04-22 14:34 | 23.19324 | 43.85215 | 33905 ft | 421 kts | 287° |
| 2026-04-22 14:34 | 23.21159 | 43.79172 | 33905 ft | 421 kts | 287° |
| 2026-04-22 14:35 | 23.22992 | 43.73123 | 33907 ft | 421 kts | 287° |
| 2026-04-22 14:35 | 23.24822 | 43.67068 | 33910 ft | 422 kts | 287° |
| 2026-04-22 14:36 | 23.26653 | 43.61006 | 33906 ft | 421 kts | 287° |
| 2026-04-22 14:36 | 23.28481 | 43.54949 | 33909 ft | 421 kts | 286° |
| 2026-04-22 14:37 | 23.29994 | 43.49914 | 33908 ft | 421 kts | 286° |
| 2026-04-22 14:37 | 23.31812 | 43.43857 | 33906 ft | 421 kts | 286° |
| 2026-04-22 14:38 | 23.33918 | 43.36824 | 33910 ft | 420 kts | 286° |
| 2026-04-22 14:38 | 23.35433 | 43.31760 | 33918 ft | 420 kts | 286° |
| 2026-04-22 14:39 | 23.37239 | 43.25713 | 33917 ft | 420 kts | 286° |
| 2026-04-22 14:39 | 23.39043 | 43.19663 | 33917 ft | 421 kts | 286° |
| 2026-04-22 14:40 | 23.41750 | 43.10573 | 33918 ft | 421 kts | 286° |
| 2026-04-22 14:40 | 23.43540 | 43.04506 | 33918 ft | 421 kts | 286° |
| 2026-04-22 14:41 | 23.45298 | 42.98545 | 33917 ft | 421 kts | 286° |
| 2026-04-22 14:41 | 23.47086 | 42.92471 | 33918 ft | 421 kts | 286° |
| 2026-04-22 14:42 | 23.48862 | 42.86435 | 33916 ft | 421 kts | 286° |
| 2026-04-22 14:42 | 23.50646 | 42.80363 | 33919 ft | 420 kts | 286° |
| 2026-04-22 14:43 | 23.52424 | 42.74304 | 33914 ft | 420 kts | 286° |
| 2026-04-22 14:43 | 23.54209 | 42.68253 | 33915 ft | 419 kts | 286° |
| 2026-04-22 14:44 | 23.55995 | 42.62214 | 33918 ft | 418 kts | 286° |
| 2026-04-22 14:44 | 23.57772 | 42.56184 | 33918 ft | 418 kts | 286° |
| 2026-04-22 14:45 | 23.59544 | 42.50158 | 33913 ft | 417 kts | 286° |
| 2026-04-22 14:45 | 23.61310 | 42.44145 | 33919 ft | 416 kts | 286° |
| 2026-04-22 14:46 | 23.63069 | 42.38141 | 33914 ft | 416 kts | 286° |
| 2026-04-22 14:46 | 23.64827 | 42.32134 | 33919 ft | 415 kts | 286° |
| 2026-04-22 14:47 | 23.66576 | 42.26131 | 33915 ft | 415 kts | 285° |
| 2026-04-22 14:47 | 23.68306 | 42.20127 | 33918 ft | 415 kts | 285° |
| 2026-04-22 14:48 | 23.70033 | 42.14120 | 33917 ft | 415 kts | 285° |
| 2026-04-22 14:48 | 23.71757 | 42.08118 | 33916 ft | 414 kts | 285° |
| 2026-04-22 14:49 | 23.73478 | 42.02119 | 33906 ft | 414 kts | 285° |
| 2026-04-22 14:49 | 23.75175 | 41.96221 | 33906 ft | 414 kts | 285° |
| 2026-04-22 14:50 | 23.76919 | 41.90233 | 33905 ft | 414 kts | 285° |
| 2026-04-22 14:50 | 23.78647 | 41.84289 | 33908 ft | 414 kts | 285° |
| 2026-04-22 14:51 | 23.80385 | 41.78292 | 33908 ft | 414 kts | 285° |
| 2026-04-22 14:51 | 23.82117 | 41.72292 | 33907 ft | 414 kts | 285° |
| 2026-04-22 14:52 | 23.83843 | 41.66277 | 33902 ft | 415 kts | 285° |
| 2026-04-22 14:52 | 23.85571 | 41.60255 | 33883 ft | 417 kts | 285° |
| 2026-04-22 14:53 | 23.87298 | 41.54217 | 33912 ft | 416 kts | 285° |
| 2026-04-22 14:53 | 23.89017 | 41.48189 | 33917 ft | 416 kts | 285° |
| 2026-04-22 14:54 | 23.90737 | 41.42158 | 33917 ft | 416 kts | 285° |
| 2026-04-22 14:54 | 23.92452 | 41.36121 | 33906 ft | 416 kts | 285° |
| 2026-04-22 14:55 | 23.94167 | 41.30086 | 33913 ft | 416 kts | 285° |
| 2026-04-22 14:55 | 23.95878 | 41.24045 | 33907 ft | 417 kts | 285° |
| 2026-04-22 14:56 | 23.97593 | 41.17990 | 33894 ft | 417 kts | 285° |
| 2026-04-22 14:56 | 23.99305 | 41.11927 | 33899 ft | 418 kts | 285° |
| 2026-04-22 14:57 | 24.01014 | 41.05859 | 33899 ft | 418 kts | 284° |
| 2026-04-22 14:57 | 24.02693 | 40.99900 | 33882 ft | 416 kts | 284° |
| 2026-04-22 14:58 | 24.04376 | 40.93911 | 33885 ft | 414 kts | 284° |
| 2026-04-22 14:58 | 24.06065 | 40.87889 | 33876 ft | 414 kts | 284° |
| 2026-04-22 14:59 | 24.07745 | 40.81879 | 33880 ft | 413 kts | 284° |
| 2026-04-22 14:59 | 24.09421 | 40.75877 | 33875 ft | 413 kts | 284° |
| 2026-04-22 15:00 | 24.11098 | 40.69866 | 33872 ft | 413 kts | 284° |
| 2026-04-22 15:00 | 24.12784 | 40.63799 | 33878 ft | 421 kts | 283° |
| 2026-04-22 15:01 | 24.14505 | 40.57608 | 33872 ft | 427 kts | 283° |
| 2026-04-22 15:01 | 24.16388 | 40.51422 | 33857 ft | 430 kts | 288° |
| 2026-04-22 15:02 | 24.19031 | 40.45520 | 33839 ft | 433 kts | 293° |
| 2026-04-22 15:02 | 24.21842 | 40.39705 | 33833 ft | 431 kts | 293° |
| 2026-04-22 15:03 | 24.24624 | 40.33903 | 33833 ft | 429 kts | 293° |
| 2026-04-22 15:03 | 24.27368 | 40.28161 | 33827 ft | 428 kts | 293° |
| 2026-04-22 15:04 | 24.30139 | 40.22342 | 33833 ft | 427 kts | 292° |
| 2026-04-22 15:04 | 24.32868 | 40.16612 | 33834 ft | 427 kts | 292° |
| 2026-04-22 15:05 | 24.35613 | 40.10838 | 33839 ft | 427 kts | 292° |
| 2026-04-22 15:05 | 24.38358 | 40.05057 | 33832 ft | 428 kts | 292° |
| 2026-04-22 15:06 | 24.41063 | 39.99357 | 33835 ft | 429 kts | 292° |
| 2026-04-22 15:06 | 24.43811 | 39.93557 | 33835 ft | 429 kts | 292° |
| 2026-04-22 15:07 | 24.46561 | 39.87747 | 33827 ft | 429 kts | 292° |
| 2026-04-22 15:07 | 24.49307 | 39.81935 | 33838 ft | 429 kts | 292° |
| 2026-04-22 15:08 | 24.52055 | 39.76123 | 33837 ft | 429 kts | 294° |
| 2026-04-22 15:08 | 24.55608 | 39.70760 | 33837 ft | 439 kts | 305° |
| 2026-04-22 15:09 | 24.60060 | 39.66094 | 33827 ft | 449 kts | 315° |
| 2026-04-22 15:09 | 24.65134 | 39.62064 | 33834 ft | 450 kts | 316° |
| 2026-04-22 15:10 | 24.70239 | 39.58075 | 33836 ft | 450 kts | 316° |
| 2026-04-22 15:10 | 24.75311 | 39.54061 | 33827 ft | 449 kts | 315° |
| 2026-04-22 15:11 | 24.80363 | 39.50026 | 33833 ft | 448 kts | 315° |
| 2026-04-22 15:11 | 24.85398 | 39.45997 | 33827 ft | 447 kts | 315° |
| 2026-04-22 15:12 | 24.90423 | 39.41966 | 33825 ft | 446 kts | 315° |
| 2026-04-22 15:12 | 24.95437 | 39.37941 | 33822 ft | 446 kts | 315° |
| 2026-04-22 15:13 | 25.00418 | 39.33941 | 33817 ft | 446 kts | 315° |
| 2026-04-22 15:13 | 25.05427 | 39.29917 | 33836 ft | 445 kts | 315° |
| 2026-04-22 15:14 | 25.10433 | 39.25888 | 33826 ft | 445 kts | 314° |
| 2026-04-22 15:14 | 25.15429 | 39.21864 | 33823 ft | 444 kts | 314° |
| 2026-04-22 15:15 | 25.20209 | 39.17641 | 33830 ft | 434 kts | 307° |
| 2026-04-22 15:15 | 25.24223 | 39.12755 | 33838 ft | 426 kts | 301° |
| 2026-04-22 15:16 | 25.27549 | 39.07412 | 33822 ft | 421 kts | 296° |
| 2026-04-22 15:16 | 25.30703 | 39.01965 | 33832 ft | 420 kts | 295° |
| 2026-04-22 15:17 | 25.33803 | 38.96616 | 33825 ft | 421 kts | 296° |
| 2026-04-22 15:17 | 25.36974 | 38.91172 | 33829 ft | 421 kts | 296° |
| 2026-04-22 15:18 | 25.40149 | 38.85729 | 33826 ft | 421 kts | 296° |
| 2026-04-22 15:18 | 25.43321 | 38.80291 | 33827 ft | 420 kts | 295° |
| 2026-04-22 15:19 | 25.46484 | 38.74860 | 33820 ft | 419 kts | 295° |
| 2026-04-22 15:19 | 25.49635 | 38.69444 | 33825 ft | 418 kts | 295° |
| 2026-04-22 15:20 | 25.52782 | 38.64027 | 33817 ft | 418 kts | 295° |
| 2026-04-22 15:20 | 25.55921 | 38.58621 | 33822 ft | 417 kts | 295° |
| 2026-04-22 15:21 | 25.59033 | 38.53248 | 33823 ft | 417 kts | 295° |
| 2026-04-22 15:21 | 25.62159 | 38.47847 | 33837 ft | 416 kts | 295° |
| 2026-04-22 15:22 | 25.65302 | 38.42413 | 33833 ft | 416 kts | 295° |
| 2026-04-22 15:22 | 25.68416 | 38.37023 | 33836 ft | 415 kts | 295° |
| 2026-04-22 15:23 | 25.71526 | 38.31634 | 33837 ft | 415 kts | 295° |
| 2026-04-22 15:23 | 25.74608 | 38.26276 | 33838 ft | 415 kts | 294° |
| 2026-04-22 15:24 | 25.77720 | 38.20877 | 33819 ft | 415 kts | 294° |
| 2026-04-22 15:24 | 25.80819 | 38.15493 | 33846 ft | 414 kts | 294° |
| 2026-04-22 15:25 | 25.83920 | 38.10086 | 33822 ft | 416 kts | 294° |
| 2026-04-22 15:25 | 25.87021 | 38.04680 | 33825 ft | 415 kts | 294° |
| 2026-04-22 15:26 | 25.90052 | 37.99388 | 33807 ft | 414 kts | 294° |
| 2026-04-22 15:26 | 25.93131 | 37.94005 | 33823 ft | 413 kts | 294° |
| 2026-04-22 15:27 | 25.96214 | 37.88619 | 33823 ft | 413 kts | 294° |
| 2026-04-22 15:27 | 25.98960 | 37.83083 | 33823 ft | 404 kts | 286° |
| 2026-04-22 15:28 | 26.00563 | 37.78229 | 33812 ft | 402 kts | 282° |
| 2026-04-22 15:28 | 26.01779 | 37.72230 | 33817 ft | 397 kts | 275° |
| 2026-04-22 15:29 | 26.02567 | 37.66146 | 33818 ft | 398 kts | 274° |
| 2026-04-22 15:30 | 26.03791 | 37.56997 | 33806 ft | 399 kts | 275° |
| 2026-04-22 15:30 | 26.04619 | 37.50903 | 33799 ft | 399 kts | 275° |
| 2026-04-22 15:31 | 26.05438 | 37.44812 | 33809 ft | 398 kts | 275° |
| 2026-04-22 15:31 | 26.06252 | 37.38711 | 33799 ft | 399 kts | 275° |
| 2026-04-22 15:32 | 26.07056 | 37.32593 | 33793 ft | 400 kts | 275° |
| 2026-04-22 15:32 | 26.07865 | 37.26474 | 33784 ft | 401 kts | 275° |
| 2026-04-22 15:33 | 26.08666 | 37.20353 | 33789 ft | 400 kts | 275° |
| 2026-04-22 15:33 | 26.09477 | 37.14212 | 33785 ft | 402 kts | 275° |
| 2026-04-22 15:34 | 26.10285 | 37.08061 | 33793 ft | 403 kts | 275° |
| 2026-04-22 15:34 | 26.11092 | 37.01874 | 33788 ft | 404 kts | 275° |
| 2026-04-22 15:35 | 26.11881 | 36.95806 | 33785 ft | 404 kts | 275° |
| 2026-04-22 15:35 | 26.12682 | 36.89623 | 33786 ft | 404 kts | 275° |
| 2026-04-22 15:36 | 26.13480 | 36.83441 | 33763 ft | 403 kts | 275° |
| 2026-04-22 15:36 | 26.14274 | 36.77266 | 33782 ft | 403 kts | 275° |
| 2026-04-22 15:37 | 26.15059 | 36.71138 | 33781 ft | 402 kts | 275° |
| 2026-04-22 15:37 | 26.15846 | 36.64970 | 33783 ft | 402 kts | 275° |
| 2026-04-22 15:38 | 26.16632 | 36.58808 | 33781 ft | 402 kts | 275° |
| 2026-04-22 15:38 | 26.18769 | 36.49796 | 33786 ft | 410 kts | 290° |
| 2026-04-22 15:39 | 26.21720 | 36.44289 | 33762 ft | 423 kts | 302° |
| 2026-04-22 15:39 | 26.25823 | 36.39495 | 33781 ft | 430 kts | 306° |
| 2026-04-22 15:40 | 26.30042 | 36.34760 | 33779 ft | 431 kts | 306° |
| 2026-04-22 15:40 | 26.34236 | 36.29987 | 33783 ft | 431 kts | 305° |
| 2026-04-22 15:41 | 26.38413 | 36.25183 | 33781 ft | 431 kts | 305° |
| 2026-04-22 15:41 | 26.42578 | 36.20367 | 33779 ft | 431 kts | 305° |
| 2026-04-22 15:42 | 26.46746 | 36.15543 | 33785 ft | 431 kts | 305° |
| 2026-04-22 15:42 | 26.50910 | 36.10723 | 33789 ft | 431 kts | 305° |
| 2026-04-22 15:43 | 26.55070 | 36.05901 | 33786 ft | 431 kts | 305° |
| 2026-04-22 15:43 | 26.59221 | 36.01083 | 33792 ft | 430 kts | 305° |
| 2026-04-22 15:44 | 26.63288 | 35.96357 | 33794 ft | 431 kts | 305° |
| 2026-04-22 15:44 | 26.67439 | 35.91528 | 33796 ft | 431 kts | 305° |
| 2026-04-22 15:45 | 26.71603 | 35.86679 | 33806 ft | 433 kts | 305° |
| 2026-04-22 15:45 | 26.75780 | 35.81808 | 33807 ft | 434 kts | 305° |
| 2026-04-22 15:46 | 26.79941 | 35.76953 | 33807 ft | 436 kts | 305° |
| 2026-04-22 15:46 | 26.84169 | 35.72013 | 33815 ft | 437 kts | 305° |
| 2026-04-22 15:47 | 26.88356 | 35.67117 | 33816 ft | 439 kts | 305° |
| 2026-04-22 15:47 | 26.92581 | 35.62174 | 33818 ft | 440 kts | 305° |
| 2026-04-22 15:48 | 26.96810 | 35.57216 | 33822 ft | 440 kts | 305° |
| 2026-04-22 15:48 | 27.01039 | 35.52250 | 33825 ft | 441 kts | 305° |
| 2026-04-22 15:49 | 27.05283 | 35.47264 | 33824 ft | 442 kts | 305° |
| 2026-04-22 15:49 | 27.09528 | 35.42268 | 33841 ft | 443 kts | 305° |
| 2026-04-22 15:50 | 27.13783 | 35.37258 | 33827 ft | 443 kts | 306° |
| 2026-04-22 15:50 | 27.18036 | 35.32243 | 33837 ft | 444 kts | 305° |
| 2026-04-22 15:51 | 27.22289 | 35.27218 | 33843 ft | 444 kts | 305° |
| 2026-04-22 15:51 | 27.26548 | 35.22184 | 33842 ft | 445 kts | 306° |
| 2026-04-22 15:52 | 27.30808 | 35.17142 | 33847 ft | 445 kts | 306° |
| 2026-04-22 15:52 | 27.35074 | 35.12088 | 33854 ft | 445 kts | 305° |
| 2026-04-22 15:53 | 27.39339 | 35.07026 | 33852 ft | 446 kts | 306° |
| 2026-04-22 15:53 | 27.43602 | 35.01963 | 33851 ft | 445 kts | 305° |
| 2026-04-22 15:54 | 27.47777 | 34.96998 | 33851 ft | 445 kts | 306° |
| 2026-04-22 15:54 | 27.52059 | 34.91966 | 33850 ft | 447 kts | 308° |
| 2026-04-22 15:55 | 27.56597 | 34.87141 | 33853 ft | 449 kts | 309° |
| 2026-04-22 15:55 | 27.61176 | 34.82345 | 33855 ft | 450 kts | 309° |
| 2026-04-22 15:56 | 27.65746 | 34.77530 | 33849 ft | 449 kts | 309° |
| 2026-04-22 15:56 | 27.70303 | 34.72706 | 33860 ft | 449 kts | 309° |
| 2026-04-22 15:57 | 27.74860 | 34.67870 | 33858 ft | 450 kts | 309° |
| 2026-04-22 15:57 | 27.79422 | 34.63019 | 33862 ft | 451 kts | 309° |
| 2026-04-22 15:58 | 27.83964 | 34.58185 | 33862 ft | 453 kts | 309° |
| 2026-04-22 15:58 | 27.88549 | 34.53303 | 33862 ft | 453 kts | 309° |
| 2026-04-22 15:59 | 27.93141 | 34.48407 | 33861 ft | 454 kts | 309° |
| 2026-04-22 15:59 | 27.97740 | 34.43500 | 33861 ft | 454 kts | 309° |
| 2026-04-22 16:00 | 28.02021 | 34.38353 | 33862 ft | 446 kts | 302° |
| 2026-04-22 16:00 | 28.05937 | 34.32902 | 33871 ft | 446 kts | 302° |
| 2026-04-22 16:01 | 28.09849 | 34.27433 | 33866 ft | 448 kts | 302° |
| 2026-04-22 16:01 | 28.13789 | 34.21955 | 33853 ft | 449 kts | 302° |
| 2026-04-22 16:02 | 28.17734 | 34.16482 | 33853 ft | 448 kts | 302° |
| 2026-04-22 16:02 | 28.21673 | 34.11014 | 33859 ft | 447 kts | 302° |
| 2026-04-22 16:03 | 28.25604 | 34.05548 | 33862 ft | 448 kts | 302° |
| 2026-04-22 16:03 | 28.29532 | 34.00078 | 33859 ft | 446 kts | 302° |
| 2026-04-22 16:04 | 28.33340 | 33.94769 | 33879 ft | 447 kts | 302° |
| 2026-04-22 16:04 | 28.37266 | 33.89284 | 33871 ft | 449 kts | 302° |
| 2026-04-22 16:05 | 28.41202 | 33.83780 | 33861 ft | 449 kts | 303° |
| 2026-04-22 16:05 | 28.45136 | 33.78280 | 33857 ft | 448 kts | 302° |
| 2026-04-22 16:06 | 28.49063 | 33.72772 | 33852 ft | 448 kts | 302° |
| 2026-04-22 16:06 | 28.52985 | 33.67270 | 33861 ft | 448 kts | 303° |
| 2026-04-22 16:07 | 28.56903 | 33.61757 | 33869 ft | 448 kts | 303° |
| 2026-04-22 16:07 | 28.60820 | 33.56238 | 33855 ft | 449 kts | 303° |
| 2026-04-22 16:08 | 28.64744 | 33.50704 | 33864 ft | 449 kts | 303° |
| 2026-04-22 16:08 | 28.68673 | 33.45168 | 33861 ft | 450 kts | 303° |
| 2026-04-22 16:09 | 28.72603 | 33.39625 | 33871 ft | 450 kts | 303° |
| 2026-04-22 16:09 | 28.76533 | 33.34073 | 33869 ft | 450 kts | 303° |
| 2026-04-22 16:10 | 28.80459 | 33.28521 | 33880 ft | 449 kts | 303° |
| 2026-04-22 16:10 | 28.84376 | 33.22968 | 33882 ft | 450 kts | 303° |
| 2026-04-22 16:11 | 28.88294 | 33.17405 | 33884 ft | 450 kts | 303° |
| 2026-04-22 16:11 | 28.92210 | 33.11838 | 33892 ft | 450 kts | 303° |
| 2026-04-22 16:12 | 28.96130 | 33.06265 | 33897 ft | 450 kts | 303° |
| 2026-04-22 16:12 | 29.00045 | 33.00687 | 33895 ft | 450 kts | 303° |
| 2026-04-22 16:13 | 29.03883 | 32.95211 | 33905 ft | 450 kts | 303° |
| 2026-04-22 16:13 | 29.07809 | 32.89600 | 34292 ft | 451 kts | 304° |
| 2026-04-22 16:14 | 29.09759 | 32.86815 | 34687 ft | 447 kts | 303° |
| 2026-04-22 16:14 | 29.11700 | 32.84040 | 34968 ft | 446 kts | 304° |
| 2026-04-22 16:14 | 29.13636 | 32.81267 | 35230 ft | 446 kts | 303° |
| 2026-04-22 16:14 | 29.15568 | 32.78498 | 35454 ft | 446 kts | 303° |
| 2026-04-22 16:15 | 29.16847 | 32.76663 | 35598 ft | 445 kts | 303° |
| 2026-04-22 16:15 | 29.19403 | 32.72995 | 35845 ft | 446 kts | 303° |
| 2026-04-22 16:15 | 29.23270 | 32.67440 | 35933 ft | 444 kts | 303° |
| 2026-04-22 16:16 | 29.27089 | 32.61950 | 35935 ft | 438 kts | 303° |
| 2026-04-22 16:16 | 29.30252 | 32.57382 | 35938 ft | 435 kts | 303° |
| 2026-04-22 16:17 | 29.33988 | 32.51936 | 35951 ft | 435 kts | 303° |
| 2026-04-22 16:17 | 29.37723 | 32.46477 | 35963 ft | 436 kts | 303° |
| 2026-04-22 16:18 | 29.41471 | 32.40996 | 35957 ft | 438 kts | 303° |
| 2026-04-22 16:18 | 29.45212 | 32.35523 | 35956 ft | 439 kts | 303° |
| 2026-04-22 16:19 | 29.48989 | 32.29994 | 35963 ft | 441 kts | 304° |
| 2026-04-22 16:19 | 29.52777 | 32.24437 | 35964 ft | 443 kts | 303° |
| 2026-04-22 16:20 | 29.56568 | 32.18867 | 35963 ft | 443 kts | 304° |
| 2026-04-22 16:20 | 29.60361 | 32.13291 | 35963 ft | 443 kts | 304° |
| 2026-04-22 16:21 | 29.64146 | 32.07719 | 35970 ft | 442 kts | 304° |
| 2026-04-22 16:21 | 29.67920 | 32.02154 | 35972 ft | 441 kts | 304° |
| 2026-04-22 16:22 | 29.73504 | 31.93901 | 35970 ft | 441 kts | 304° |
| 2026-04-22 16:23 | 29.79141 | 31.85541 | 35972 ft | 440 kts | 303° |
| 2026-04-22 16:23 | 29.82778 | 31.79888 | 35968 ft | 439 kts | 302° |
| 2026-04-22 16:24 | 29.88230 | 31.71396 | 35958 ft | 438 kts | 304° |
| 2026-04-22 16:24 | 29.90368 | 31.68869 | 35961 ft | 446 kts | 317° |
| 2026-04-22 16:25 | 29.92997 | 31.66918 | 35969 ft | 454 kts | 327° |
| 2026-04-22 16:25 | 29.99099 | 31.64691 | 35985 ft | 469 kts | 344° |
| 2026-04-22 16:25 | 30.02328 | 31.64142 | 35965 ft | 472 kts | 346° |
| 2026-04-22 16:26 | 30.08857 | 31.63110 | 35968 ft | 475 kts | 345° |
| 2026-04-22 16:26 | 30.15406 | 31.62008 | 35971 ft | 475 kts | 345° |
| 2026-04-22 16:27 | 30.21955 | 31.60841 | 35973 ft | 477 kts | 345° |
| 2026-04-22 16:27 | 30.28515 | 31.59656 | 35974 ft | 477 kts | 345° |
| 2026-04-22 16:28 | 30.35074 | 31.58473 | 35974 ft | 477 kts | 345° |
| 2026-04-22 16:28 | 30.41623 | 31.57289 | 35971 ft | 476 kts | 345° |
| 2026-04-22 16:29 | 30.48108 | 31.56115 | 35969 ft | 474 kts | 345° |
| 2026-04-22 16:29 | 30.54623 | 31.54936 | 35970 ft | 473 kts | 345° |
| 2026-04-22 16:30 | 30.61123 | 31.53758 | 35972 ft | 472 kts | 345° |
| 2026-04-22 16:30 | 30.67614 | 31.52580 | 35977 ft | 472 kts | 345° |
| 2026-04-22 16:31 | 30.74095 | 31.51401 | 35984 ft | 472 kts | 345° |
| 2026-04-22 16:31 | 30.80586 | 31.50221 | 35985 ft | 472 kts | 345° |
| 2026-04-22 16:32 | 30.87082 | 31.49041 | 35995 ft | 472 kts | 345° |
| 2026-04-22 16:32 | 30.93579 | 31.47860 | 35989 ft | 473 kts | 345° |
| 2026-04-22 16:33 | 31.00069 | 31.46679 | 35996 ft | 473 kts | 345° |
| 2026-04-22 16:33 | 31.06573 | 31.45490 | 35998 ft | 473 kts | 345° |
| 2026-04-22 16:34 | 31.13081 | 31.44300 | 35997 ft | 473 kts | 345° |
| 2026-04-22 16:34 | 31.19596 | 31.43109 | 36000 ft | 474 kts | 345° |
| 2026-04-22 16:35 | 31.26113 | 31.41915 | 35997 ft | 474 kts | 345° |
| 2026-04-22 16:35 | 31.32625 | 31.40699 | 36005 ft | 474 kts | 345° |
| 2026-04-22 16:36 | 31.39138 | 31.39474 | 36012 ft | 474 kts | 345° |
| 2026-04-22 16:36 | 31.45657 | 31.38250 | 36009 ft | 474 kts | 345° |
| 2026-04-22 16:37 | 31.52177 | 31.37026 | 36008 ft | 474 kts | 345° |
| 2026-04-22 16:37 | 31.58735 | 31.35997 | 36007 ft | 477 kts | 349° |
| 2026-04-22 16:38 | 31.65358 | 31.35347 | 36013 ft | 478 kts | 350° |
| 2026-04-22 16:38 | 31.71988 | 31.34705 | 36013 ft | 478 kts | 349° |
| 2026-04-22 16:39 | 31.78611 | 31.34029 | 36006 ft | 478 kts | 349° |
| 2026-04-22 16:39 | 31.85229 | 31.33341 | 36009 ft | 478 kts | 349° |
| 2026-04-22 16:40 | 31.91853 | 31.32653 | 36008 ft | 478 kts | 349° |
| 2026-04-22 16:41 | 32.01732 | 31.31617 | 36013 ft | 478 kts | 349° |
| 2026-04-22 16:41 | 32.08353 | 31.30922 | 36011 ft | 478 kts | 349° |
| 2026-04-22 16:42 | 32.14967 | 31.30233 | 36008 ft | 477 kts | 349° |
| 2026-04-22 16:42 | 32.21574 | 31.29537 | 36008 ft | 476 kts | 349° |
| 2026-04-22 16:43 | 32.28177 | 31.28819 | 36010 ft | 476 kts | 349° |
| 2026-04-22 16:43 | 32.34781 | 31.28099 | 36009 ft | 477 kts | 349° |
| 2026-04-22 16:44 | 32.41385 | 31.27385 | 36009 ft | 477 kts | 349° |
| 2026-04-22 16:44 | 32.47995 | 31.26667 | 36007 ft | 477 kts | 349° |
| 2026-04-22 16:45 | 32.54581 | 31.25823 | 36008 ft | 473 kts | 344° |
| 2026-04-22 16:45 | 32.60860 | 31.23731 | 36013 ft | 466 kts | 335° |
| 2026-04-22 16:46 | 32.66703 | 31.20529 | 36014 ft | 462 kts | 329° |
| 2026-04-22 16:46 | 32.72439 | 31.17105 | 36007 ft | 461 kts | 329° |
| 2026-04-22 16:47 | 32.78185 | 31.13702 | 36009 ft | 461 kts | 329° |
| 2026-04-22 16:47 | 32.82970 | 31.10895 | 36004 ft | 462 kts | 329° |
| 2026-04-22 16:48 | 32.89702 | 31.06949 | 36000 ft | 461 kts | 329° |
| 2026-04-22 16:48 | 32.95448 | 31.03572 | 35999 ft | 461 kts | 329° |
| 2026-04-22 16:49 | 33.01193 | 31.00193 | 35998 ft | 460 kts | 329° |
| 2026-04-22 16:49 | 33.06821 | 30.96876 | 35999 ft | 460 kts | 329° |
| 2026-04-22 16:50 | 33.12483 | 30.93365 | 35999 ft | 458 kts | 326° |
| 2026-04-22 16:50 | 33.17998 | 30.89566 | 36001 ft | 457 kts | 326° |
| 2026-04-22 16:51 | 33.23494 | 30.85734 | 36000 ft | 458 kts | 326° |
| 2026-04-22 16:51 | 33.29002 | 30.81911 | 36002 ft | 458 kts | 326° |
| 2026-04-22 16:52 | 33.34518 | 30.78094 | 36001 ft | 458 kts | 326° |
| 2026-04-22 16:52 | 33.40037 | 30.74275 | 36003 ft | 458 kts | 326° |
| 2026-04-22 16:53 | 33.45558 | 30.70449 | 35998 ft | 458 kts | 326° |
| 2026-04-22 16:53 | 33.51063 | 30.66627 | 36001 ft | 457 kts | 326° |
| 2026-04-22 16:54 | 33.56564 | 30.62801 | 36002 ft | 457 kts | 326° |
| 2026-04-22 16:54 | 33.62063 | 30.58971 | 36000 ft | 458 kts | 326° |
| 2026-04-22 16:55 | 33.67533 | 30.55158 | 35998 ft | 457 kts | 326° |
| 2026-04-22 16:55 | 33.73069 | 30.51292 | 36000 ft | 457 kts | 326° |
| 2026-04-22 16:56 | 33.78563 | 30.47448 | 36001 ft | 457 kts | 326° |
| 2026-04-22 16:56 | 33.84020 | 30.43623 | 36002 ft | 457 kts | 326° |
| 2026-04-22 16:57 | 33.89512 | 30.39769 | 35999 ft | 457 kts | 326° |
| 2026-04-22 16:57 | 33.95002 | 30.35910 | 36000 ft | 457 kts | 326° |
| 2026-04-22 16:58 | 33.99603 | 30.32672 | 36001 ft | 457 kts | 326° |
| 2026-04-22 16:58 | 34.05967 | 30.28187 | 35999 ft | 457 kts | 326° |
| 2026-04-22 16:59 | 34.11444 | 30.24321 | 36000 ft | 456 kts | 326° |
| 2026-04-22 16:59 | 34.16922 | 30.20448 | 36002 ft | 456 kts | 326° |
| 2026-04-22 17:00 | 34.22402 | 30.16571 | 35996 ft | 457 kts | 326° |
| 2026-04-22 17:00 | 34.30619 | 30.10738 | 35993 ft | 457 kts | 326° |
| 2026-04-22 17:01 | 34.36097 | 30.06843 | 35995 ft | 457 kts | 326° |
| 2026-04-22 17:01 | 34.41574 | 30.02944 | 35994 ft | 457 kts | 326° |
| 2026-04-22 17:02 | 34.45814 | 29.99467 | 36002 ft | 453 kts | 318° |
| 2026-04-22 17:02 | 34.50422 | 29.94309 | 35996 ft | 450 kts | 311° |
| 2026-04-22 17:03 | 34.54779 | 29.88874 | 35982 ft | 449 kts | 311° |
| 2026-04-22 17:03 | 34.59141 | 29.83438 | 35982 ft | 449 kts | 311° |
| 2026-04-22 17:04 | 34.63509 | 29.78017 | 35983 ft | 449 kts | 311° |
| 2026-04-22 17:04 | 34.67879 | 29.72604 | 35980 ft | 449 kts | 311° |
| 2026-04-22 17:05 | 34.72244 | 29.67187 | 35981 ft | 448 kts | 311° |
| 2026-04-22 17:05 | 34.76604 | 29.61768 | 35982 ft | 448 kts | 311° |
| 2026-04-22 17:06 | 34.80959 | 29.56342 | 35981 ft | 448 kts | 311° |
| 2026-04-22 17:06 | 34.85309 | 29.50913 | 35981 ft | 448 kts | 311° |
| 2026-04-22 17:07 | 34.89651 | 29.45491 | 35982 ft | 448 kts | 311° |
| 2026-04-22 17:07 | 34.94001 | 29.40047 | 35981 ft | 448 kts | 311° |
| 2026-04-22 17:08 | 34.98366 | 29.34628 | 35981 ft | 448 kts | 313° |
| 2026-04-22 17:08 | 35.03203 | 29.29890 | 35994 ft | 452 kts | 321° |
| 2026-04-22 17:09 | 35.08379 | 29.25426 | 35979 ft | 452 kts | 321° |
| 2026-04-22 17:09 | 35.13481 | 29.21016 | 35983 ft | 453 kts | 321° |
| 2026-04-22 17:10 | 35.18609 | 29.16546 | 35984 ft | 453 kts | 320° |
| 2026-04-22 17:10 | 35.23727 | 29.12061 | 35981 ft | 453 kts | 320° |
| 2026-04-22 17:11 | 35.28839 | 29.07571 | 35980 ft | 452 kts | 320° |
| 2026-04-22 17:11 | 35.33949 | 29.03076 | 35981 ft | 452 kts | 320° |
| 2026-04-22 17:12 | 35.38954 | 28.98667 | 35981 ft | 452 kts | 320° |
| 2026-04-22 17:12 | 35.44062 | 28.94162 | 35972 ft | 452 kts | 320° |
| 2026-04-22 17:13 | 35.49166 | 28.89655 | 35974 ft | 452 kts | 320° |
| 2026-04-22 17:13 | 35.54269 | 28.85141 | 35973 ft | 452 kts | 320° |
| 2026-04-22 17:14 | 35.59374 | 28.80614 | 35958 ft | 452 kts | 320° |
| 2026-04-22 17:14 | 35.64470 | 28.76090 | 35952 ft | 452 kts | 320° |
| 2026-04-22 17:15 | 35.69569 | 28.71556 | 35954 ft | 452 kts | 320° |
| 2026-04-22 17:15 | 35.74661 | 28.67022 | 35956 ft | 451 kts | 320° |
| 2026-04-22 17:16 | 35.79743 | 28.62486 | 35951 ft | 451 kts | 320° |
| 2026-04-22 17:16 | 35.84786 | 28.57978 | 35953 ft | 451 kts | 320° |
| 2026-04-22 17:17 | 35.89865 | 28.53436 | 35954 ft | 451 kts | 320° |
| 2026-04-22 17:17 | 35.94946 | 28.48881 | 35955 ft | 451 kts | 320° |
| 2026-04-22 17:18 | 36.00020 | 28.44326 | 35953 ft | 451 kts | 319° |
| 2026-04-22 17:18 | 36.05098 | 28.39759 | 35955 ft | 451 kts | 319° |
| 2026-04-22 17:19 | 36.15245 | 28.30608 | 35943 ft | 452 kts | 319° |
| 2026-04-22 17:20 | 36.25392 | 28.21434 | 35946 ft | 451 kts | 319° |
| 2026-04-22 17:21 | 36.32985 | 28.14544 | 35946 ft | 451 kts | 319° |
| 2026-04-22 17:22 | 36.40749 | 28.08478 | 35946 ft | 455 kts | 327° |
| 2026-04-22 17:23 | 36.49199 | 28.03009 | 35942 ft | 456 kts | 327° |
| 2026-04-22 17:23 | 36.57509 | 27.97563 | 35951 ft | 456 kts | 327° |
| 2026-04-22 17:24 | 36.63120 | 27.93856 | 35941 ft | 456 kts | 327° |
| 2026-04-22 17:24 | 36.68715 | 27.90155 | 35945 ft | 455 kts | 327° |
| 2026-04-22 17:25 | 36.74298 | 27.86453 | 35948 ft | 454 kts | 327° |
| 2026-04-22 17:25 | 36.79839 | 27.82773 | 35952 ft | 454 kts | 327° |
| 2026-04-22 17:26 | 36.85442 | 27.79050 | 35955 ft | 453 kts | 327° |
| 2026-04-22 17:26 | 36.91009 | 27.75347 | 35959 ft | 453 kts | 327° |
| 2026-04-22 17:27 | 36.96566 | 27.71635 | 35964 ft | 453 kts | 327° |
| 2026-04-22 17:27 | 37.02106 | 27.67929 | 35962 ft | 452 kts | 327° |
| 2026-04-22 17:28 | 37.07620 | 27.64240 | 35967 ft | 452 kts | 327° |
| 2026-04-22 17:28 | 37.13167 | 27.60521 | 35959 ft | 452 kts | 326° |
| 2026-04-22 17:29 | 37.18708 | 27.56801 | 35962 ft | 452 kts | 327° |
| 2026-04-22 17:29 | 37.24250 | 27.53073 | 35961 ft | 452 kts | 326° |
| 2026-04-22 17:30 | 37.29786 | 27.49342 | 35959 ft | 452 kts | 326° |
| 2026-04-22 17:30 | 37.35320 | 27.45606 | 35956 ft | 451 kts | 326° |
| 2026-04-22 17:31 | 37.40844 | 27.41872 | 35967 ft | 451 kts | 326° |
| 2026-04-22 17:31 | 37.46369 | 27.38131 | 35966 ft | 451 kts | 326° |
| 2026-04-22 17:32 | 37.51888 | 27.34387 | 35962 ft | 451 kts | 326° |
| 2026-04-22 17:32 | 37.57408 | 27.30634 | 35963 ft | 451 kts | 326° |
| 2026-04-22 17:33 | 37.62934 | 27.26874 | 35963 ft | 451 kts | 326° |
| 2026-04-22 17:33 | 37.68450 | 27.23113 | 35967 ft | 450 kts | 326° |
| 2026-04-22 17:34 | 37.73966 | 27.19345 | 35969 ft | 451 kts | 326° |
| 2026-04-22 17:34 | 37.79481 | 27.15572 | 35962 ft | 451 kts | 326° |
| 2026-04-22 17:35 | 37.84993 | 27.11795 | 35963 ft | 451 kts | 326° |
| 2026-04-22 17:35 | 37.90505 | 27.08009 | 35963 ft | 451 kts | 326° |
| 2026-04-22 17:36 | 37.96016 | 27.04220 | 35964 ft | 450 kts | 326° |
| 2026-04-22 17:36 | 38.01510 | 27.00435 | 35963 ft | 450 kts | 326° |
| 2026-04-22 17:37 | 38.06909 | 26.96711 | 35956 ft | 450 kts | 326° |
| 2026-04-22 17:37 | 38.12411 | 26.92907 | 35952 ft | 451 kts | 326° |
| 2026-04-22 17:38 | 38.17920 | 26.89092 | 35955 ft | 451 kts | 326° |
| 2026-04-22 17:38 | 38.23424 | 26.85270 | 35945 ft | 450 kts | 326° |
| 2026-04-22 17:39 | 38.28927 | 26.81449 | 35937 ft | 450 kts | 326° |
| 2026-04-22 17:40 | 38.37157 | 26.75721 | 35938 ft | 449 kts | 326° |
| 2026-04-22 17:40 | 38.42624 | 26.71905 | 35945 ft | 448 kts | 326° |
| 2026-04-22 17:41 | 38.48095 | 26.68079 | 35945 ft | 448 kts | 325° |
| 2026-04-22 17:41 | 38.53553 | 26.64257 | 35946 ft | 447 kts | 325° |
| 2026-04-22 17:42 | 38.58973 | 26.60453 | 35954 ft | 447 kts | 325° |
| 2026-04-22 17:42 | 38.63547 | 26.57238 | 35955 ft | 448 kts | 325° |
| 2026-04-22 17:43 | 38.69895 | 26.52770 | 35953 ft | 448 kts | 325° |
| 2026-04-22 17:43 | 38.75356 | 26.48915 | 35957 ft | 449 kts | 325° |
| 2026-04-22 17:44 | 38.80820 | 26.45055 | 35963 ft | 448 kts | 325° |
| 2026-04-22 17:44 | 38.85939 | 26.40626 | 35964 ft | 441 kts | 315° |
| 2026-04-22 17:45 | 38.90650 | 26.35592 | 35968 ft | 441 kts | 315° |
| 2026-04-22 17:45 | 38.95365 | 26.30546 | 35962 ft | 441 kts | 315° |
| 2026-04-22 17:46 | 39.00086 | 26.25518 | 35964 ft | 442 kts | 315° |
| 2026-04-22 17:46 | 39.04822 | 26.20478 | 35960 ft | 442 kts | 315° |
| 2026-04-22 17:47 | 39.09560 | 26.15433 | 35976 ft | 442 kts | 315° |
| 2026-04-22 17:47 | 39.14289 | 26.10385 | 35970 ft | 442 kts | 315° |
| 2026-04-22 17:48 | 39.18216 | 26.06185 | 35980 ft | 441 kts | 315° |
| 2026-04-22 17:48 | 39.23738 | 26.00268 | 35995 ft | 441 kts | 315° |
| 2026-04-22 17:49 | 39.28365 | 25.95300 | 35984 ft | 441 kts | 315° |
| 2026-04-22 17:49 | 39.33032 | 25.90195 | 35992 ft | 439 kts | 314° |
| 2026-04-22 17:50 | 39.36859 | 25.85911 | 35997 ft | 438 kts | 313° |
| 2026-04-22 17:50 | 39.41451 | 25.80760 | 35997 ft | 437 kts | 313° |
| 2026-04-22 17:51 | 39.46042 | 25.75616 | 36000 ft | 436 kts | 313° |
| 2026-04-22 17:51 | 39.50632 | 25.70473 | 35998 ft | 437 kts | 313° |
| 2026-04-22 17:52 | 39.55232 | 25.65314 | 35997 ft | 437 kts | 313° |
| 2026-04-22 17:52 | 39.59829 | 25.60144 | 35999 ft | 438 kts | 313° |
| 2026-04-22 17:53 | 39.64431 | 25.54962 | 36011 ft | 438 kts | 313° |
| 2026-04-22 17:53 | 39.69003 | 25.49801 | 36010 ft | 439 kts | 313° |
| 2026-04-22 17:54 | 39.73610 | 25.44593 | 36000 ft | 439 kts | 313° |
| 2026-04-22 17:54 | 39.78215 | 25.39376 | 36000 ft | 439 kts | 313° |
| 2026-04-22 17:55 | 39.82820 | 25.34151 | 36002 ft | 439 kts | 313° |
| 2026-04-22 17:55 | 39.87418 | 25.28923 | 36002 ft | 439 kts | 313° |
| 2026-04-22 17:56 | 39.92009 | 25.23692 | 35984 ft | 438 kts | 313° |
| 2026-04-22 17:56 | 39.96560 | 25.18425 | 35985 ft | 437 kts | 313° |
| 2026-04-22 17:57 | 40.01076 | 25.13139 | 35996 ft | 437 kts | 313° |
| 2026-04-22 17:57 | 40.05602 | 25.07834 | 35999 ft | 437 kts | 312° |
| 2026-04-22 17:58 | 40.10126 | 25.02531 | 35997 ft | 437 kts | 313° |
| 2026-04-22 17:58 | 40.14571 | 24.97315 | 35996 ft | 437 kts | 313° |
| 2026-04-22 17:59 | 40.19090 | 24.91998 | 35997 ft | 437 kts | 313° |
| 2026-04-22 17:59 | 40.23607 | 24.86677 | 35994 ft | 437 kts | 313° |
| 2026-04-22 18:00 | 40.27360 | 24.82248 | 36003 ft | 436 kts | 313° |
| 2026-04-22 18:00 | 40.32626 | 24.76023 | 36004 ft | 436 kts | 313° |
| 2026-04-22 18:01 | 40.37083 | 24.70742 | 36006 ft | 434 kts | 313° |
| 2026-04-22 18:01 | 40.41557 | 24.65431 | 36007 ft | 433 kts | 313° |
| 2026-04-22 18:02 | 40.46018 | 24.60127 | 36008 ft | 432 kts | 313° |
| 2026-04-22 18:02 | 40.50463 | 24.54831 | 36013 ft | 431 kts | 313° |
| 2026-04-22 18:03 | 40.54896 | 24.49539 | 36019 ft | 430 kts | 313° |
| 2026-04-22 18:03 | 40.59322 | 24.44244 | 36018 ft | 430 kts | 313° |
| 2026-04-22 18:04 | 40.63742 | 24.38943 | 36022 ft | 430 kts | 313° |
| 2026-04-22 18:04 | 40.68168 | 24.33631 | 36019 ft | 431 kts | 313° |
| 2026-04-22 18:05 | 40.72611 | 24.28291 | 36020 ft | 432 kts | 313° |
| 2026-04-22 18:05 | 40.77046 | 24.22948 | 36020 ft | 433 kts | 313° |
| 2026-04-22 18:06 | 40.81492 | 24.17580 | 36019 ft | 433 kts | 313° |
| 2026-04-22 18:06 | 40.85943 | 24.12197 | 36015 ft | 435 kts | 313° |
| 2026-04-22 18:07 | 40.90403 | 24.06790 | 36021 ft | 435 kts | 313° |
| 2026-04-22 18:07 | 40.94870 | 24.01367 | 36032 ft | 436 kts | 313° |
| 2026-04-22 18:08 | 40.99246 | 23.96042 | 36031 ft | 436 kts | 313° |
| 2026-04-22 18:08 | 41.03688 | 23.90629 | 36021 ft | 434 kts | 313° |
| 2026-04-22 18:09 | 41.08127 | 23.85210 | 36028 ft | 433 kts | 313° |
| 2026-04-22 18:09 | 41.12555 | 23.79791 | 36028 ft | 433 kts | 313° |
| 2026-04-22 18:10 | 41.16977 | 23.74371 | 36029 ft | 433 kts | 313° |
| 2026-04-22 18:10 | 41.21396 | 23.68941 | 36033 ft | 434 kts | 313° |
| 2026-04-22 18:11 | 41.25827 | 23.63487 | 36027 ft | 434 kts | 313° |
| 2026-04-22 18:11 | 41.30233 | 23.58056 | 36028 ft | 435 kts | 313° |
| 2026-04-22 18:12 | 41.34675 | 23.52566 | 36028 ft | 436 kts | 313° |
| 2026-04-22 18:12 | 41.38471 | 23.48047 | 36022 ft | 439 kts | 317° |
| 2026-04-22 18:13 | 41.44447 | 23.42822 | 36030 ft | 447 kts | 327° |
| 2026-04-22 18:13 | 41.50035 | 23.39153 | 36033 ft | 449 kts | 328° |
| 2026-04-22 18:14 | 41.55675 | 23.35534 | 36034 ft | 450 kts | 328° |
| 2026-04-22 18:14 | 41.61308 | 23.31885 | 36050 ft | 450 kts | 328° |
| 2026-04-22 18:15 | 41.66931 | 23.28208 | 36052 ft | 450 kts | 328° |
| 2026-04-22 18:15 | 41.72542 | 23.24519 | 36055 ft | 449 kts | 328° |
| 2026-04-22 18:16 | 41.78141 | 23.20837 | 36040 ft | 448 kts | 328° |
| 2026-04-22 18:16 | 41.83722 | 23.17156 | 36049 ft | 447 kts | 328° |
| 2026-04-22 18:17 | 41.89294 | 23.13475 | 36037 ft | 446 kts | 328° |
| 2026-04-22 18:17 | 41.94860 | 23.09789 | 36053 ft | 446 kts | 328° |
| 2026-04-22 18:18 | 42.00371 | 23.06136 | 36053 ft | 445 kts | 328° |
| 2026-04-22 18:18 | 42.05944 | 23.02431 | 36052 ft | 451 kts | 329° |
| 2026-04-22 18:19 | 42.11511 | 22.98719 | 36050 ft | 460 kts | 329° |
| 2026-04-22 18:19 | 42.17257 | 22.94886 | 36051 ft | 462 kts | 329° |
| 2026-04-22 18:20 | 42.23012 | 22.91043 | 36057 ft | 461 kts | 329° |
| 2026-04-22 18:20 | 42.28756 | 22.87196 | 36036 ft | 460 kts | 329° |
| 2026-04-22 18:21 | 42.34473 | 22.83354 | 36044 ft | 458 kts | 329° |
| 2026-04-22 18:21 | 42.40159 | 22.79522 | 36047 ft | 456 kts | 329° |
| 2026-04-22 18:22 | 42.45832 | 22.75695 | 36044 ft | 454 kts | 329° |
| 2026-04-22 18:22 | 42.51482 | 22.71872 | 36055 ft | 454 kts | 328° |
| 2026-04-22 18:23 | 42.57129 | 22.68043 | 36054 ft | 454 kts | 329° |
| 2026-04-22 18:23 | 42.62787 | 22.64200 | 36062 ft | 456 kts | 329° |
| 2026-04-22 18:24 | 42.71317 | 22.58388 | 36057 ft | 458 kts | 329° |
| 2026-04-22 18:25 | 42.79876 | 22.52538 | 36059 ft | 460 kts | 329° |
| 2026-04-22 18:25 | 42.85598 | 22.48623 | 36066 ft | 460 kts | 329° |
| 2026-04-22 18:26 | 42.94224 | 22.42818 | 36061 ft | 461 kts | 329° |
| 2026-04-22 18:26 | 42.99992 | 22.38945 | 36071 ft | 463 kts | 329° |
| 2026-04-22 18:27 | 43.05753 | 22.35056 | 36066 ft | 464 kts | 330° |
| 2026-04-22 18:27 | 43.11533 | 22.31145 | 36066 ft | 463 kts | 330° |
| 2026-04-22 18:28 | 43.17310 | 22.27231 | 36067 ft | 463 kts | 330° |
| 2026-04-22 18:28 | 43.23084 | 22.23308 | 36073 ft | 463 kts | 330° |
| 2026-04-22 18:29 | 43.28853 | 22.19377 | 36073 ft | 464 kts | 330° |
| 2026-04-22 18:29 | 43.34655 | 22.15416 | 36073 ft | 466 kts | 330° |
| 2026-04-22 18:30 | 43.43400 | 22.09431 | 36078 ft | 470 kts | 330° |
| 2026-04-22 18:31 | 43.49262 | 22.05404 | 36081 ft | 472 kts | 330° |
| 2026-04-22 18:31 | 43.55146 | 22.01357 | 36080 ft | 473 kts | 330° |
| 2026-04-22 18:32 | 43.60886 | 21.97403 | 36073 ft | 474 kts | 330° |
| 2026-04-22 18:32 | 43.66792 | 21.93325 | 36077 ft | 475 kts | 330° |
| 2026-04-22 18:33 | 43.72693 | 21.89239 | 36079 ft | 475 kts | 330° |
| 2026-04-22 18:33 | 43.78591 | 21.85147 | 36084 ft | 474 kts | 330° |
| 2026-04-22 18:34 | 43.84489 | 21.81047 | 36078 ft | 474 kts | 330° |
| 2026-04-22 18:34 | 43.90367 | 21.76951 | 36083 ft | 473 kts | 330° |
| 2026-04-22 18:35 | 43.96241 | 21.72848 | 36091 ft | 472 kts | 330° |
| 2026-04-22 18:35 | 44.02093 | 21.68750 | 36094 ft | 473 kts | 330° |
| 2026-04-22 18:36 | 44.07968 | 21.64630 | 36105 ft | 473 kts | 330° |
| 2026-04-22 18:36 | 44.13845 | 21.60494 | 36104 ft | 474 kts | 330° |
| 2026-04-22 18:37 | 44.19735 | 21.56344 | 36097 ft | 475 kts | 330° |
| 2026-04-22 18:37 | 44.24630 | 21.52886 | 36103 ft | 475 kts | 330° |
| 2026-04-22 18:38 | 44.31524 | 21.48006 | 36101 ft | 476 kts | 331° |
| 2026-04-22 18:38 | 44.37425 | 21.43822 | 36101 ft | 476 kts | 331° |
| 2026-04-22 18:39 | 44.45262 | 21.38245 | 36107 ft | 474 kts | 331° |
| 2026-04-22 18:39 | 44.51143 | 21.34052 | 36114 ft | 474 kts | 331° |
| 2026-04-22 18:40 | 44.57021 | 21.29845 | 36114 ft | 474 kts | 331° |
| 2026-04-22 18:40 | 44.62899 | 21.25632 | 36112 ft | 474 kts | 331° |
| 2026-04-22 18:41 | 44.68771 | 21.21414 | 36106 ft | 474 kts | 331° |
| 2026-04-22 18:41 | 44.74647 | 21.17184 | 36114 ft | 474 kts | 331° |
| 2026-04-22 18:42 | 44.80496 | 21.12902 | 36111 ft | 474 kts | 330° |
| 2026-04-22 18:42 | 44.86326 | 21.08563 | 36109 ft | 474 kts | 330° |
| 2026-04-22 18:43 | 44.92152 | 21.04215 | 36108 ft | 474 kts | 331° |
| 2026-04-22 18:43 | 44.97912 | 20.99917 | 36113 ft | 473 kts | 331° |
| 2026-04-22 18:44 | 45.03680 | 20.95611 | 36113 ft | 474 kts | 331° |
| 2026-04-22 18:44 | 45.09514 | 20.91249 | 36111 ft | 475 kts | 331° |
| 2026-04-22 18:45 | 45.15351 | 20.86870 | 36112 ft | 475 kts | 331° |
| 2026-04-22 18:45 | 45.21187 | 20.82483 | 36123 ft | 475 kts | 331° |
| 2026-04-22 18:46 | 45.27029 | 20.78079 | 36121 ft | 476 kts | 331° |
| 2026-04-22 18:46 | 45.32834 | 20.73695 | 36125 ft | 476 kts | 331° |
| 2026-04-22 18:47 | 45.38678 | 20.69271 | 36116 ft | 476 kts | 331° |
| 2026-04-22 18:47 | 45.44526 | 20.64831 | 36120 ft | 476 kts | 332° |
| 2026-04-22 18:48 | 45.50370 | 20.60388 | 36120 ft | 476 kts | 332° |
| 2026-04-22 18:48 | 45.56214 | 20.55931 | 36119 ft | 476 kts | 332° |
| 2026-04-22 18:49 | 45.62052 | 20.51466 | 36118 ft | 476 kts | 332° |
| 2026-04-22 18:49 | 45.67890 | 20.46994 | 36120 ft | 476 kts | 332° |
| 2026-04-22 18:50 | 45.73726 | 20.42508 | 36122 ft | 476 kts | 332° |
| 2026-04-22 18:50 | 45.79567 | 20.38014 | 36120 ft | 477 kts | 332° |
| 2026-04-22 18:51 | 45.85403 | 20.33509 | 36123 ft | 477 kts | 332° |
| 2026-04-22 18:51 | 45.91218 | 20.29010 | 35849 ft | 473 kts | 332° |
| 2026-04-22 18:52 | 45.94119 | 20.26762 | 35521 ft | 474 kts | 332° |
| 2026-04-22 18:52 | 45.97029 | 20.24505 | 35129 ft | 476 kts | 332° |
| 2026-04-22 18:52 | 45.99945 | 20.22240 | 34762 ft | 477 kts | 332° |
| 2026-04-22 18:52 | 46.02835 | 20.19991 | 34433 ft | 476 kts | 332° |
| 2026-04-22 18:53 | 46.05752 | 20.17718 | 34131 ft | 475 kts | 332° |
| 2026-04-22 18:53 | 46.08653 | 20.15455 | 34135 ft | 474 kts | 332° |
| 2026-04-22 18:53 | 46.14469 | 20.10914 | 34120 ft | 477 kts | 332° |
| 2026-04-22 18:54 | 46.20292 | 20.06321 | 34119 ft | 477 kts | 332° |
| 2026-04-22 18:54 | 46.26095 | 20.01659 | 34119 ft | 477 kts | 332° |
| 2026-04-22 18:55 | 46.31773 | 19.97083 | 34120 ft | 477 kts | 332° |
| 2026-04-22 18:55 | 46.37569 | 19.92406 | 34121 ft | 477 kts | 332° |
| 2026-04-22 18:56 | 46.43364 | 19.87725 | 34119 ft | 477 kts | 332° |
| 2026-04-22 18:56 | 46.49155 | 19.83039 | 34127 ft | 477 kts | 332° |
| 2026-04-22 18:57 | 46.54948 | 19.78336 | 34130 ft | 477 kts | 332° |
| 2026-04-22 18:57 | 46.60730 | 19.73629 | 34127 ft | 476 kts | 332° |
| 2026-04-22 18:58 | 46.66518 | 19.68911 | 34130 ft | 477 kts | 332° |
| 2026-04-22 18:58 | 46.72313 | 19.64174 | 34130 ft | 478 kts | 333° |
| 2026-04-22 18:59 | 46.78112 | 19.59419 | 34131 ft | 478 kts | 333° |
| 2026-04-22 18:59 | 46.83872 | 19.54685 | 34129 ft | 479 kts | 333° |
| 2026-04-22 19:00 | 46.89674 | 19.49905 | 34130 ft | 479 kts | 333° |
| 2026-04-22 19:00 | 46.95480 | 19.45110 | 34129 ft | 479 kts | 333° |
| 2026-04-22 19:01 | 47.01265 | 19.40320 | 34130 ft | 479 kts | 333° |
| 2026-04-22 19:01 | 47.07070 | 19.35500 | 34129 ft | 480 kts | 333° |
| 2026-04-22 19:02 | 47.12877 | 19.30669 | 34129 ft | 480 kts | 333° |
| 2026-04-22 19:02 | 47.18682 | 19.25826 | 34131 ft | 480 kts | 333° |
| 2026-04-22 19:03 | 47.24486 | 19.20970 | 34128 ft | 480 kts | 333° |
| 2026-04-22 19:03 | 47.30276 | 19.16037 | 34124 ft | 481 kts | 329° |
| 2026-04-22 19:04 | 47.32862 | 19.12893 | 34123 ft | 486 kts | 318° |
| 2026-04-22 19:04 | 47.35072 | 19.09091 | 34134 ft | 491 kts | 309° |
| 2026-04-22 19:04 | 47.38304 | 19.00143 | 34136 ft | 498 kts | 297° |
| 2026-04-22 19:05 | 47.41047 | 18.90963 | 34140 ft | 499 kts | 297° |
| 2026-04-22 19:05 | 47.42466 | 18.86270 | 33636 ft | 507 kts | 297° |
| 2026-04-22 19:05 | 47.43937 | 18.81489 | 32866 ft | 510 kts | 298° |
| 2026-04-22 19:06 | 47.45408 | 18.76750 | 32002 ft | 506 kts | 298° |
| 2026-04-22 19:06 | 47.46892 | 18.71985 | 30735 ft | 513 kts | 298° |
| 2026-04-22 19:06 | 47.48378 | 18.67208 | 29903 ft | 509 kts | 298° |
| 2026-04-22 19:07 | 47.51268 | 18.57866 | 28734 ft | 492 kts | 298° |
| 2026-04-22 19:07 | 47.52678 | 18.53295 | 28103 ft | 486 kts | 298° |
| 2026-04-22 19:07 | 47.54037 | 18.48750 | 27473 ft | 482 kts | 296° |
| 2026-04-22 19:07 | 47.55147 | 18.44086 | 26874 ft | 479 kts | 291° |
| 2026-04-22 19:08 | 47.56137 | 18.39408 | 26264 ft | 474 kts | 290° |
| 2026-04-22 19:08 | 47.57096 | 18.34766 | 25659 ft | 469 kts | 290° |
| 2026-04-22 19:08 | 47.58032 | 18.30224 | 25066 ft | 465 kts | 290° |
| 2026-04-22 19:08 | 47.58990 | 18.25608 | 24463 ft | 460 kts | 290° |
| 2026-04-22 19:09 | 47.59921 | 18.21157 | 23871 ft | 456 kts | 290° |
| 2026-04-22 19:09 | 47.60859 | 18.16694 | 23263 ft | 452 kts | 291° |
| 2026-04-22 19:09 | 47.61488 | 18.13706 | 22882 ft | 449 kts | 291° |
| 2026-04-22 19:09 | 47.62713 | 18.07888 | 22106 ft | 444 kts | 291° |
| 2026-04-22 19:10 | 47.63627 | 18.03540 | 21531 ft | 439 kts | 291° |
| 2026-04-22 19:10 | 47.64493 | 17.99411 | 20978 ft | 436 kts | 291° |
| 2026-04-22 19:10 | 47.65384 | 17.95147 | 20380 ft | 433 kts | 291° |
| 2026-04-22 19:10 | 47.66248 | 17.90984 | 20212 ft | 409 kts | 291° |
| 2026-04-22 19:11 | 47.67054 | 17.87080 | 20034 ft | 383 kts | 291° |
| 2026-04-22 19:11 | 47.67739 | 17.83759 | 19886 ft | 361 kts | 291° |
| 2026-04-22 19:11 | 47.68450 | 17.80318 | 19526 ft | 339 kts | 291° |
| 2026-04-22 19:11 | 47.69131 | 17.77035 | 18893 ft | 328 kts | 292° |
| 2026-04-22 19:12 | 47.69787 | 17.73872 | 18416 ft | 313 kts | 292° |
| 2026-04-22 19:12 | 47.70413 | 17.70847 | 17939 ft | 300 kts | 292° |
| 2026-04-22 19:12 | 47.71015 | 17.67936 | 17391 ft | 290 kts | 292° |
| 2026-04-22 19:12 | 47.71601 | 17.65102 | 16767 ft | 285 kts | 292° |
| 2026-04-22 19:13 | 47.72178 | 17.62304 | 16103 ft | 282 kts | 292° |
| 2026-04-22 19:13 | 47.72748 | 17.59543 | 15430 ft | 279 kts | 291° |
| 2026-04-22 19:13 | 47.73311 | 17.56794 | 14765 ft | 279 kts | 291° |
| 2026-04-22 19:13 | 47.73878 | 17.54028 | 14392 ft | 279 kts | 291° |
| 2026-04-22 19:14 | 47.74436 | 17.51294 | 14152 ft | 273 kts | 290° |
| 2026-04-22 19:14 | 47.74694 | 17.48516 | 13709 ft | 277 kts | 269° |
| 2026-04-22 19:14 | 47.74487 | 17.45657 | 13330 ft | 278 kts | 266° |
| 2026-04-22 19:14 | 47.74257 | 17.42817 | 13015 ft | 276 kts | 266° |
| 2026-04-22 19:15 | 47.74109 | 17.40946 | 12840 ft | 274 kts | 266° |
| 2026-04-22 19:15 | 47.73821 | 17.37203 | 12431 ft | 271 kts | 267° |
| 2026-04-22 19:15 | 47.73614 | 17.34421 | 12113 ft | 270 kts | 267° |
| 2026-04-22 19:15 | 47.73411 | 17.31655 | 11806 ft | 269 kts | 267° |
| 2026-04-22 19:16 | 47.73211 | 17.28909 | 11494 ft | 267 kts | 267° |
| 2026-04-22 19:16 | 47.73011 | 17.26170 | 11168 ft | 266 kts | 267° |
| 2026-04-22 19:16 | 47.72813 | 17.23436 | 10861 ft | 265 kts | 267° |
| 2026-04-22 19:16 | 47.72616 | 17.20718 | 10547 ft | 264 kts | 267° |
| 2026-04-22 19:17 | 47.72421 | 17.18016 | 10229 ft | 263 kts | 267° |
| 2026-04-22 19:17 | 47.72228 | 17.15347 | 10081 ft | 255 kts | 267° |
| 2026-04-22 19:17 | 47.72038 | 17.12747 | 10018 ft | 253 kts | 267° |
| 2026-04-22 19:17 | 47.71846 | 17.10114 | 10028 ft | 260 kts | 267° |
| 2026-04-22 19:18 | 47.71649 | 17.07417 | 10031 ft | 265 kts | 267° |
| 2026-04-22 19:18 | 47.71426 | 17.04703 | 10002 ft | 264 kts | 261° |
| 2026-04-22 19:18 | 47.70642 | 17.02242 | 10013 ft | 268 kts | 231° |
| 2026-04-22 19:18 | 47.69158 | 17.00564 | 10002 ft | 271 kts | 203° |
| 2026-04-22 19:19 | 47.67414 | 16.99976 | 10011 ft | 272 kts | 180° |
| 2026-04-22 19:19 | 47.65611 | 17.00495 | 9994 ft | 268 kts | 150° |
| 2026-04-22 19:19 | 47.64187 | 17.02190 | 10024 ft | 263 kts | 130° |
| 2026-04-22 19:19 | 47.63031 | 17.04304 | 9987 ft | 265 kts | 111° |
| 2026-04-22 19:20 | 47.62710 | 17.06906 | 9839 ft | 256 kts | 77° |
| 2026-04-22 19:20 | 47.63437 | 17.09214 | 9471 ft | 247 kts | 41° |
| 2026-04-22 19:20 | 47.64897 | 17.10413 | 9128 ft | 239 kts | 14° |
| 2026-04-22 19:20 | 47.66531 | 17.10816 | 8809 ft | 238 kts | 2° |
| 2026-04-22 19:21 | 47.68156 | 17.10484 | 8490 ft | 238 kts | 340° |
| 2026-04-22 19:21 | 47.69574 | 17.09232 | 8158 ft | 240 kts | 317° |
| 2026-04-22 19:21 | 47.70505 | 17.07182 | 7757 ft | 241 kts | 301° |
| 2026-04-22 19:21 | 47.71302 | 17.04973 | 7391 ft | 242 kts | 302° |
| 2026-04-22 19:22 | 47.72104 | 17.02761 | 7189 ft | 236 kts | 302° |
| 2026-04-22 19:22 | 47.72867 | 17.00673 | 7080 ft | 232 kts | 302° |
| 2026-04-22 19:22 | 47.73658 | 16.98512 | 6990 ft | 238 kts | 302° |
| 2026-04-22 19:22 | 47.74443 | 16.96362 | 6929 ft | 241 kts | 302° |
| 2026-04-22 19:23 | 47.75243 | 16.94174 | 6817 ft | 241 kts | 302° |
| 2026-04-22 19:23 | 47.76042 | 16.91997 | 6711 ft | 239 kts | 302° |
| 2026-04-22 19:23 | 47.76837 | 16.89840 | 6615 ft | 236 kts | 302° |
| 2026-04-22 19:23 | 47.77625 | 16.87697 | 6513 ft | 236 kts | 302° |
| 2026-04-22 19:24 | 47.78411 | 16.85559 | 6413 ft | 236 kts | 302° |
| 2026-04-22 19:24 | 47.79200 | 16.83415 | 6324 ft | 236 kts | 302° |
| 2026-04-22 19:24 | 47.79984 | 16.81270 | 6222 ft | 235 kts | 303° |
| 2026-04-22 19:24 | 47.81043 | 16.79537 | 6067 ft | 224 kts | 334° |
| 2026-04-22 19:25 | 47.82513 | 16.78941 | 5992 ft | 221 kts | 359° |
| 2026-04-22 19:25 | 47.84050 | 16.79248 | 5910 ft | 227 kts | 19° |
| 2026-04-22 19:25 | 47.85502 | 16.80227 | 5794 ft | 231 kts | 25° |
| 2026-04-22 19:25 | 47.86944 | 16.81325 | 5546 ft | 232 kts | 25° |
| 2026-04-22 19:26 | 47.87876 | 16.82139 | 5349 ft | 230 kts | 37° |
| 2026-04-22 19:26 | 47.88866 | 16.83971 | 5085 ft | 226 kts | 55° |
| 2026-04-22 19:26 | 47.89668 | 16.85939 | 4846 ft | 224 kts | 55° |
| 2026-04-22 19:26 | 47.90473 | 16.87920 | 4590 ft | 222 kts | 55° |
| 2026-04-22 19:27 | 47.91257 | 16.89873 | 4353 ft | 212 kts | 55° |
| 2026-04-22 19:27 | 47.91972 | 16.91686 | 4132 ft | 196 kts | 55° |
| 2026-04-22 19:27 | 47.92640 | 16.93394 | 3831 ft | 185 kts | 55° |
| 2026-04-22 19:27 | 47.93283 | 16.95043 | 3565 ft | 185 kts | 55° |
| 2026-04-22 19:28 | 47.94107 | 16.96422 | 3276 ft | 176 kts | 24° |
| 2026-04-22 19:28 | 47.95265 | 16.96632 | 3103 ft | 168 kts | 342° |
| 2026-04-22 19:28 | 47.96264 | 16.95724 | 3037 ft | 172 kts | 325° |
| 2026-04-22 19:28 | 47.97233 | 16.94636 | 3019 ft | 175 kts | 325° |
| 2026-04-22 19:29 | 47.98205 | 16.93543 | 3004 ft | 174 kts | 325° |
| 2026-04-22 19:29 | 47.99150 | 16.92422 | 2987 ft | 173 kts | 315° |
| 2026-04-22 19:29 | 47.99816 | 16.90942 | 3032 ft | 175 kts | 306° |
| 2026-04-22 19:29 | 48.00456 | 16.89373 | 3022 ft | 180 kts | 302° |
| 2026-04-22 19:30 | 48.00853 | 16.88261 | 3024 ft | 180 kts | 301° |
| 2026-04-22 19:30 | 48.01593 | 16.86067 | 3006 ft | 178 kts | 300° |
| 2026-04-22 19:30 | 48.02135 | 16.84427 | 3038 ft | 174 kts | 300° |
| 2026-04-22 19:30 | 48.02667 | 16.82805 | 3023 ft | 173 kts | 300° |
| 2026-04-22 19:31 | 48.03198 | 16.81182 | 3023 ft | 176 kts | 300° |
| 2026-04-22 19:31 | 48.03739 | 16.79528 | 3030 ft | 179 kts | 300° |
| 2026-04-22 19:31 | 48.04285 | 16.77852 | 3025 ft | 178 kts | 300° |
| 2026-04-22 19:31 | 48.04826 | 16.76192 | 3008 ft | 177 kts | 300° |
| 2026-04-22 19:32 | 48.05365 | 16.74541 | 3008 ft | 174 kts | 300° |
| 2026-04-22 19:32 | 48.05887 | 16.72941 | 2796 ft | 168 kts | 300° |
| 2026-04-22 19:32 | 48.06379 | 16.71430 | 2600 ft | 157 kts | 300° |
| 2026-04-22 19:32 | 48.06860 | 16.69962 | 2412 ft | 159 kts | 299° |
| 2026-04-22 19:33 | 48.07342 | 16.68491 | 2204 ft | 155 kts | 298° |
| 2026-04-22 19:33 | 48.07803 | 16.67068 | 2006 ft | 148 kts | 298° |
| 2026-04-22 19:33 | 48.08246 | 16.65706 | 1792 ft | 144 kts | 297° |
| 2026-04-22 19:33 | 48.08685 | 16.64361 | 1619 ft | 145 kts | 297° |
| 2026-04-22 19:34 | 48.09128 | 16.63003 | 1423 ft | 145 kts | 297° |
| 2026-04-22 19:34 | 48.09571 | 16.61646 | 1230 ft | 146 kts | 297° |
| 2026-04-22 19:34 | 48.10010 | 16.60296 | 1025 ft | 143 kts | 297° |
| 2026-04-22 19:34 | 48.10437 | 16.58951 | 848 ft | 144 kts | 297° |
| 2026-04-22 19:35 | 48.10894 | 16.57597 | 667 ft | 146 kts | 297° |
| 2026-04-22 19:35 | 48.11327 | 16.56269 | 628 ft | 128 kts | 295° |
| 2026-04-22 19:35 | 48.11579 | 16.55508 | 626 ft | 52 kts | 302° |
| 2026-04-22 19:35 | 48.11756 | 16.55210 | 623 ft | 17 kts | 317° |
| 2026-04-22 19:36 | 48.11828 | 16.55146 | 616 ft | 0 kts | 346° |
| 2026-04-22 19:36 | 48.11831 | 16.55145 | 615 ft | 1 kts | 346° |
| 2026-04-22 19:36 | 48.11837 | 16.55144 | 618 ft | 1 kts | 353° |
| 2026-04-22 19:36 | 48.11848 | 16.55143 | 624 ft | 2 kts | 358° |
| 2026-04-22 19:37 | 48.11868 | 16.55150 | 614 ft | 3 kts | 28° |
| 2026-04-22 19:37 | 48.11875 | 16.55190 | 624 ft | 5 kts | 84° |
| 2026-04-22 19:37 | 48.11865 | 16.55256 | 614 ft | 8 kts | 109° |
| 2026-04-22 19:37 | 48.11838 | 16.55347 | 626 ft | 11 kts | 116° |
| 2026-04-22 19:38 | 48.11799 | 16.55463 | 622 ft | 14 kts | 116° |
| 2026-04-22 19:38 | 48.11753 | 16.55603 | 625 ft | 16 kts | 116° |
| 2026-04-22 19:38 | 48.11703 | 16.55754 | 625 ft | 18 kts | 116° |
| 2026-04-22 19:38 | 48.11646 | 16.55937 | 625 ft | 20 kts | 116° |
| 2026-04-22 19:39 | 48.11580 | 16.56136 | 616 ft | 22 kts | 116° |
| 2026-04-22 19:39 | 48.11513 | 16.56340 | 622 ft | 22 kts | 116° |
| 2026-04-22 19:39 | 48.11448 | 16.56542 | 618 ft | 24 kts | 115° |
| 2026-04-22 19:39 | 48.11387 | 16.56740 | 621 ft | 13 kts | 102° |
| 2026-04-22 19:40 | 48.11437 | 16.56846 | 629 ft | 14 kts | 28° |
| 2026-04-22 19:40 | 48.11530 | 16.56922 | 625 ft | 16 kts | 46° |
| 2026-04-22 19:40 | 48.11539 | 16.57072 | 614 ft | 11 kts | 68° |
| 2026-04-22 19:40 | 48.11593 | 16.57120 | 618 ft | 0 kts | 26° |